JAL47 RJTT-EFHK
Flight info
| Callsign | JAL47 |
|---|---|
| Flight time | 12h 8m |
| Altitude | 31000 |
| Route | INUBO Y808 PUTER/N0495F320 A590 PUGAL/N0489F330 A590 POWAL DCT OPAKE DCT MARCC DCT JUJXI/N0489F340 DCT 80N165W/N0491F360 DCT DEKMO DCT 89N060W/M084F350 82N010E/N0495F370 DCT TETNI DCT GOSVA Y86 LUSEP |
| Aircraft | B77W/H-SDE1E2E3FGHIJ2J3J4J5M1RWXY/LB1D1 |
Departure
| Time | 2026-04-25 21:02 |
|---|---|
| Airport | Tokyo Haneda International Airport (RJTT) |
Arrival
| Time | 2026-04-26 09:10 |
|---|---|
| Airport | Helsinki Vantaa Airport (EFHK) |
| Time | Latitude | Longitude | Altitude | Speed | Heading |
|---|---|---|---|---|---|
| 2026-04-25 19:51 | 35.54784 | 139.79210 | 35 ft | 0 kts | 330° |
| 2026-04-25 20:48 | 35.54774 | 139.79216 | 35 ft | 2 kts | 330° |
| 2026-04-25 20:48 | 35.54762 | 139.79225 | 35 ft | 2 kts | 330° |
| 2026-04-25 20:49 | 35.54749 | 139.79234 | 35 ft | 2 kts | 330° |
| 2026-04-25 20:49 | 35.54736 | 139.79244 | 35 ft | 2 kts | 330° |
| 2026-04-25 20:49 | 35.54722 | 139.79253 | 35 ft | 2 kts | 334° |
| 2026-04-25 20:49 | 35.54709 | 139.79260 | 35 ft | 2 kts | 345° |
| 2026-04-25 20:50 | 35.54694 | 139.79263 | 35 ft | 2 kts | 355° |
| 2026-04-25 20:50 | 35.54679 | 139.79263 | 35 ft | 2 kts | 4° |
| 2026-04-25 20:50 | 35.54664 | 139.79262 | 35 ft | 2 kts | 13° |
| 2026-04-25 20:50 | 35.54649 | 139.79256 | 35 ft | 2 kts | 22° |
| 2026-04-25 20:51 | 35.54636 | 139.79248 | 35 ft | 2 kts | 31° |
| 2026-04-25 20:51 | 35.54624 | 139.79239 | 35 ft | 2 kts | 40° |
| 2026-04-25 20:51 | 35.54613 | 139.79225 | 35 ft | 2 kts | 49° |
| 2026-04-25 20:51 | 35.54604 | 139.79211 | 35 ft | 1 kts | 59° |
| 2026-04-25 20:52 | 35.54601 | 139.79205 | 35 ft | 0 kts | 61° |
| 2026-04-25 20:55 | 35.54602 | 139.79207 | 35 ft | 0 kts | 59° |
| 2026-04-25 20:55 | 35.54606 | 139.79213 | 35 ft | 1 kts | 57° |
| 2026-04-25 20:55 | 35.54610 | 139.79222 | 35 ft | 1 kts | 60° |
| 2026-04-25 20:56 | 35.54617 | 139.79236 | 35 ft | 2 kts | 60° |
| 2026-04-25 20:56 | 35.54625 | 139.79256 | 35 ft | 2 kts | 61° |
| 2026-04-25 20:56 | 35.54636 | 139.79279 | 35 ft | 4 kts | 62° |
| 2026-04-25 20:56 | 35.54652 | 139.79315 | 35 ft | 5 kts | 60° |
| 2026-04-25 20:57 | 35.54675 | 139.79364 | 35 ft | 7 kts | 59° |
| 2026-04-25 20:57 | 35.54703 | 139.79422 | 35 ft | 8 kts | 60° |
| 2026-04-25 20:57 | 35.54736 | 139.79489 | 35 ft | 9 kts | 59° |
| 2026-04-25 20:57 | 35.54771 | 139.79564 | 35 ft | 10 kts | 60° |
| 2026-04-25 20:58 | 35.54792 | 139.79651 | 35 ft | 10 kts | 108° |
| 2026-04-25 20:58 | 35.54737 | 139.79712 | 35 ft | 11 kts | 148° |
| 2026-04-25 20:58 | 35.54667 | 139.79764 | 35 ft | 12 kts | 149° |
| 2026-04-25 20:58 | 35.54590 | 139.79819 | 35 ft | 13 kts | 150° |
| 2026-04-25 20:59 | 35.54507 | 139.79878 | 35 ft | 14 kts | 149° |
| 2026-04-25 20:59 | 35.54418 | 139.79939 | 35 ft | 14 kts | 149° |
| 2026-04-25 20:59 | 35.54327 | 139.80005 | 34 ft | 15 kts | 150° |
| 2026-04-25 20:59 | 35.54233 | 139.80072 | 35 ft | 14 kts | 150° |
| 2026-04-25 21:00 | 35.54201 | 139.80173 | 35 ft | 14 kts | 72° |
| 2026-04-25 21:00 | 35.54232 | 139.80244 | 35 ft | 14 kts | 49° |
| 2026-04-25 21:00 | 35.54432 | 139.80186 | 35 ft | 13 kts | 329° |
| 2026-04-25 21:01 | 35.54623 | 139.80052 | 35 ft | 60 kts | 330° |
| 2026-04-25 21:01 | 35.55172 | 139.79662 | 35 ft | 121 kts | 331° |
| 2026-04-25 21:01 | 35.56064 | 139.79028 | 36 ft | 174 kts | 330° |
| 2026-04-25 21:01 | 35.57228 | 139.78226 | 248 ft | 202 kts | 337° |
| 2026-04-25 21:02 | 35.58588 | 139.77882 | 856 ft | 204 kts | 7° |
| 2026-04-25 21:02 | 35.59930 | 139.78476 | 1214 ft | 211 kts | 37° |
| 2026-04-25 21:02 | 35.60871 | 139.79953 | 1280 ft | 235 kts | 72° |
| 2026-04-25 21:02 | 35.61207 | 139.81972 | 1763 ft | 246 kts | 82° |
| 2026-04-25 21:03 | 35.61464 | 139.84058 | 2544 ft | 247 kts | 82° |
| 2026-04-25 21:03 | 35.61719 | 139.86144 | 3261 ft | 250 kts | 82° |
| 2026-04-25 21:03 | 35.61978 | 139.88275 | 3881 ft | 256 kts | 83° |
| 2026-04-25 21:03 | 35.62240 | 139.90434 | 4531 ft | 261 kts | 82° |
| 2026-04-25 21:04 | 35.62506 | 139.92631 | 5214 ft | 263 kts | 82° |
| 2026-04-25 21:04 | 35.62778 | 139.94873 | 5838 ft | 268 kts | 82° |
| 2026-04-25 21:04 | 35.63052 | 139.97147 | 6450 ft | 272 kts | 82° |
| 2026-04-25 21:04 | 35.63334 | 139.99480 | 7101 ft | 275 kts | 82° |
| 2026-04-25 21:05 | 35.63614 | 140.01808 | 7693 ft | 279 kts | 83° |
| 2026-04-25 21:05 | 35.63897 | 140.04169 | 8278 ft | 284 kts | 82° |
| 2026-04-25 21:05 | 35.64188 | 140.06598 | 8893 ft | 287 kts | 83° |
| 2026-04-25 21:05 | 35.64476 | 140.09006 | 9442 ft | 291 kts | 83° |
| 2026-04-25 21:06 | 35.64773 | 140.11497 | 10036 ft | 294 kts | 82° |
| 2026-04-25 21:06 | 35.65070 | 140.14000 | 10505 ft | 303 kts | 83° |
| 2026-04-25 21:06 | 35.65382 | 140.16632 | 10721 ft | 321 kts | 82° |
| 2026-04-25 21:06 | 35.65595 | 140.18437 | 10894 ft | 332 kts | 82° |
| 2026-04-25 21:07 | 35.66052 | 140.22314 | 11250 ft | 355 kts | 82° |
| 2026-04-25 21:07 | 35.66415 | 140.25403 | 11531 ft | 372 kts | 83° |
| 2026-04-25 21:07 | 35.66792 | 140.28616 | 11856 ft | 387 kts | 82° |
| 2026-04-25 21:07 | 35.67179 | 140.31923 | 12408 ft | 395 kts | 82° |
| 2026-04-25 21:08 | 35.67569 | 140.35268 | 13091 ft | 400 kts | 82° |
| 2026-04-25 21:08 | 35.67963 | 140.38652 | 13802 ft | 404 kts | 82° |
| 2026-04-25 21:08 | 35.68364 | 140.42102 | 14447 ft | 408 kts | 82° |
| 2026-04-25 21:08 | 35.68763 | 140.45560 | 14873 ft | 416 kts | 82° |
| 2026-04-25 21:09 | 35.69584 | 140.52705 | 16044 ft | 428 kts | 82° |
| 2026-04-25 21:09 | 35.69998 | 140.56320 | 16469 ft | 435 kts | 82° |
| 2026-04-25 21:09 | 35.70422 | 140.60048 | 16984 ft | 441 kts | 82° |
| 2026-04-25 21:10 | 35.70847 | 140.63798 | 17544 ft | 446 kts | 82° |
| 2026-04-25 21:10 | 35.71275 | 140.67586 | 18040 ft | 452 kts | 83° |
| 2026-04-25 21:10 | 35.71712 | 140.71481 | 18467 ft | 460 kts | 83° |
| 2026-04-25 21:10 | 35.72106 | 140.75349 | 18980 ft | 464 kts | 87° |
| 2026-04-25 21:11 | 35.72091 | 140.79308 | 19528 ft | 465 kts | 97° |
| 2026-04-25 21:11 | 35.71548 | 140.83215 | 20116 ft | 464 kts | 107° |
| 2026-04-25 21:11 | 35.70564 | 140.87004 | 20658 ft | 466 kts | 112° |
| 2026-04-25 21:11 | 35.69469 | 140.90773 | 21229 ft | 468 kts | 113° |
| 2026-04-25 21:12 | 35.68375 | 140.94502 | 21753 ft | 471 kts | 113° |
| 2026-04-25 21:12 | 35.67250 | 140.98326 | 22233 ft | 476 kts | 112° |
| 2026-04-25 21:12 | 35.66117 | 141.02171 | 22673 ft | 480 kts | 113° |
| 2026-04-25 21:12 | 35.65366 | 141.04712 | 22992 ft | 483 kts | 113° |
| 2026-04-25 21:13 | 35.63836 | 141.09888 | 23592 ft | 487 kts | 113° |
| 2026-04-25 21:13 | 35.62669 | 141.13831 | 23921 ft | 494 kts | 114° |
| 2026-04-25 21:13 | 35.61485 | 141.17818 | 24245 ft | 500 kts | 114° |
| 2026-04-25 21:13 | 35.60287 | 141.21852 | 24551 ft | 506 kts | 114° |
| 2026-04-25 21:14 | 35.59089 | 141.25879 | 24905 ft | 511 kts | 114° |
| 2026-04-25 21:14 | 35.57853 | 141.30028 | 25232 ft | 517 kts | 115° |
| 2026-04-25 21:14 | 35.56625 | 141.34142 | 25567 ft | 521 kts | 114° |
| 2026-04-25 21:14 | 35.55365 | 141.38356 | 25904 ft | 526 kts | 115° |
| 2026-04-25 21:15 | 35.54094 | 141.42603 | 26178 ft | 533 kts | 115° |
| 2026-04-25 21:15 | 35.52808 | 141.46895 | 26487 ft | 538 kts | 115° |
| 2026-04-25 21:15 | 35.51515 | 141.51202 | 26875 ft | 541 kts | 115° |
| 2026-04-25 21:15 | 35.50226 | 141.55492 | 27221 ft | 545 kts | 115° |
| 2026-04-25 21:16 | 35.48901 | 141.59892 | 27417 ft | 553 kts | 115° |
| 2026-04-25 21:16 | 35.47557 | 141.64348 | 27736 ft | 557 kts | 116° |
| 2026-04-25 21:16 | 35.46220 | 141.68776 | 28065 ft | 561 kts | 116° |
| 2026-04-25 21:16 | 35.45028 | 141.73398 | 28311 ft | 572 kts | 108° |
| 2026-04-25 21:17 | 35.44340 | 141.78235 | 28602 ft | 582 kts | 99° |
| 2026-04-25 21:17 | 35.44143 | 141.83188 | 28910 ft | 588 kts | 94° |
| 2026-04-25 21:17 | 35.44109 | 141.88222 | 29144 ft | 593 kts | 92° |
| 2026-04-25 21:17 | 35.44087 | 141.93249 | 29337 ft | 600 kts | 93° |
| 2026-04-25 21:18 | 35.44060 | 141.98366 | 29708 ft | 602 kts | 93° |
| 2026-04-25 21:18 | 35.44030 | 142.03456 | 30309 ft | 598 kts | 93° |
| 2026-04-25 21:18 | 35.43995 | 142.08513 | 30964 ft | 594 kts | 94° |
| 2026-04-25 21:18 | 35.43956 | 142.13585 | 31215 ft | 596 kts | 94° |
| 2026-04-25 21:19 | 35.43867 | 142.23749 | 31238 ft | 595 kts | 94° |
| 2026-04-25 21:19 | 35.43766 | 142.33852 | 31247 ft | 597 kts | 94° |
| 2026-04-25 21:20 | 35.43675 | 142.42278 | 31250 ft | 595 kts | 93° |
| 2026-04-25 21:20 | 35.43536 | 142.54021 | 31255 ft | 596 kts | 94° |
| 2026-04-25 21:21 | 35.43407 | 142.64139 | 31252 ft | 593 kts | 93° |
| 2026-04-25 21:21 | 35.43269 | 142.74300 | 31230 ft | 594 kts | 95° |
| 2026-04-25 21:22 | 35.43122 | 142.84380 | 31232 ft | 596 kts | 94° |
| 2026-04-25 21:22 | 35.42967 | 142.94511 | 31237 ft | 594 kts | 94° |
| 2026-04-25 21:23 | 35.42804 | 143.04597 | 31244 ft | 594 kts | 94° |
| 2026-04-25 21:23 | 35.42823 | 143.14658 | 31244 ft | 597 kts | 85° |
| 2026-04-25 21:24 | 35.44585 | 143.24577 | 31254 ft | 599 kts | 68° |
| 2026-04-25 21:24 | 35.48311 | 143.33586 | 31252 ft | 589 kts | 50° |
| 2026-04-25 21:25 | 35.53677 | 143.40979 | 31264 ft | 574 kts | 33° |
| 2026-04-25 21:25 | 35.60170 | 143.46422 | 31259 ft | 560 kts | 20° |
| 2026-04-25 21:26 | 35.66953 | 143.51193 | 31260 ft | 563 kts | 20° |
| 2026-04-25 21:26 | 35.73667 | 143.55974 | 31262 ft | 556 kts | 21° |
| 2026-04-25 21:27 | 35.80421 | 143.60814 | 31272 ft | 563 kts | 21° |
| 2026-04-25 21:27 | 35.87122 | 143.65660 | 31261 ft | 556 kts | 21° |
| 2026-04-25 21:28 | 35.93787 | 143.70491 | 31244 ft | 559 kts | 21° |
| 2026-04-25 21:28 | 36.00466 | 143.75354 | 31259 ft | 559 kts | 21° |
| 2026-04-25 21:29 | 36.07209 | 143.80272 | 31259 ft | 560 kts | 21° |
| 2026-04-25 21:29 | 36.13898 | 143.85167 | 31258 ft | 559 kts | 21° |
| 2026-04-25 21:30 | 36.20608 | 143.90085 | 31273 ft | 563 kts | 21° |
| 2026-04-25 21:30 | 36.26170 | 143.94176 | 31276 ft | 557 kts | 21° |
| 2026-04-25 21:31 | 36.33998 | 143.99942 | 31278 ft | 560 kts | 21° |
| 2026-04-25 21:31 | 36.40641 | 144.04852 | 31281 ft | 555 kts | 20° |
| 2026-04-25 21:32 | 36.47288 | 144.09767 | 31288 ft | 559 kts | 21° |
| 2026-04-25 21:32 | 36.53994 | 144.14739 | 31287 ft | 558 kts | 21° |
| 2026-04-25 21:33 | 36.60621 | 144.19665 | 31293 ft | 558 kts | 20° |
| 2026-04-25 21:33 | 36.67305 | 144.24640 | 31290 ft | 557 kts | 20° |
| 2026-04-25 21:34 | 36.73926 | 144.29581 | 31291 ft | 557 kts | 20° |
| 2026-04-25 21:34 | 36.80613 | 144.34578 | 31299 ft | 558 kts | 20° |
| 2026-04-25 21:35 | 36.87256 | 144.39566 | 31300 ft | 560 kts | 21° |
| 2026-04-25 21:35 | 36.93917 | 144.44580 | 31296 ft | 555 kts | 20° |
| 2026-04-25 21:36 | 37.00547 | 144.49574 | 31301 ft | 561 kts | 21° |
| 2026-04-25 21:36 | 37.07169 | 144.54584 | 31302 ft | 553 kts | 20° |
| 2026-04-25 21:37 | 37.12637 | 144.58719 | 31297 ft | 557 kts | 20° |
| 2026-04-25 21:37 | 37.20355 | 144.64577 | 31304 ft | 551 kts | 20° |
| 2026-04-25 21:38 | 37.26949 | 144.69583 | 31269 ft | 557 kts | 21° |
| 2026-04-25 21:38 | 37.33496 | 144.74573 | 31295 ft | 554 kts | 21° |
| 2026-04-25 21:39 | 37.40125 | 144.79629 | 31297 ft | 555 kts | 22° |
| 2026-04-25 21:39 | 37.46667 | 144.84636 | 31274 ft | 552 kts | 21° |
| 2026-04-25 21:40 | 37.53214 | 144.89656 | 31287 ft | 550 kts | 21° |
| 2026-04-25 21:40 | 37.59790 | 144.94702 | 31289 ft | 555 kts | 21° |
| 2026-04-25 21:41 | 37.66338 | 144.99745 | 31289 ft | 552 kts | 22° |
| 2026-04-25 21:41 | 37.72921 | 145.04822 | 31293 ft | 550 kts | 22° |
| 2026-04-25 21:42 | 37.79382 | 145.09816 | 31285 ft | 550 kts | 22° |
| 2026-04-25 21:42 | 37.85919 | 145.14876 | 31311 ft | 553 kts | 22° |
| 2026-04-25 21:43 | 37.92495 | 145.19980 | 31303 ft | 552 kts | 22° |
| 2026-04-25 21:43 | 37.98965 | 145.25014 | 31286 ft | 550 kts | 22° |
| 2026-04-25 21:44 | 38.05468 | 145.30083 | 31289 ft | 548 kts | 22° |
| 2026-04-25 21:45 | 38.15228 | 145.37711 | 31309 ft | 545 kts | 22° |
| 2026-04-25 21:45 | 38.21673 | 145.42760 | 31300 ft | 545 kts | 22° |
| 2026-04-25 21:46 | 38.28124 | 145.47824 | 31328 ft | 547 kts | 23° |
| 2026-04-25 21:46 | 38.34372 | 145.53281 | 31319 ft | 547 kts | 34° |
| 2026-04-25 21:47 | 38.40058 | 145.59868 | 31361 ft | 561 kts | 35° |
| 2026-04-25 21:47 | 38.42903 | 145.63219 | 31774 ft | 559 kts | 35° |
| 2026-04-25 21:47 | 38.45764 | 145.66595 | 32203 ft | 557 kts | 35° |
| 2026-04-25 21:48 | 38.51454 | 145.73317 | 32310 ft | 560 kts | 36° |
| 2026-04-25 21:48 | 38.57129 | 145.80040 | 32308 ft | 560 kts | 35° |
| 2026-04-25 21:49 | 38.62903 | 145.86897 | 32319 ft | 555 kts | 35° |
| 2026-04-25 21:49 | 38.68539 | 145.93605 | 32306 ft | 553 kts | 36° |
| 2026-04-25 21:50 | 38.74149 | 146.00293 | 32308 ft | 554 kts | 36° |
| 2026-04-25 21:50 | 38.79746 | 146.06987 | 32325 ft | 546 kts | 36° |
| 2026-04-25 21:51 | 38.85297 | 146.13634 | 32313 ft | 549 kts | 36° |
| 2026-04-25 21:51 | 38.90847 | 146.20299 | 32319 ft | 545 kts | 36° |
| 2026-04-25 21:52 | 38.96330 | 146.26897 | 32316 ft | 543 kts | 36° |
| 2026-04-25 21:52 | 39.01817 | 146.33516 | 32311 ft | 539 kts | 36° |
| 2026-04-25 21:53 | 39.07282 | 146.40118 | 32315 ft | 541 kts | 36° |
| 2026-04-25 21:53 | 39.12771 | 146.46767 | 32315 ft | 540 kts | 37° |
| 2026-04-25 21:54 | 39.18222 | 146.53386 | 32314 ft | 538 kts | 36° |
| 2026-04-25 21:54 | 39.23636 | 146.59973 | 32325 ft | 541 kts | 37° |
| 2026-04-25 21:55 | 39.29085 | 146.66618 | 32297 ft | 536 kts | 37° |
| 2026-04-25 21:55 | 39.34452 | 146.73181 | 32288 ft | 533 kts | 37° |
| 2026-04-25 21:56 | 39.39851 | 146.79791 | 32292 ft | 535 kts | 37° |
| 2026-04-25 21:56 | 39.45205 | 146.86366 | 32283 ft | 533 kts | 38° |
| 2026-04-25 21:57 | 39.50610 | 146.93016 | 32307 ft | 533 kts | 38° |
| 2026-04-25 21:57 | 39.55954 | 146.99606 | 32289 ft | 531 kts | 38° |
| 2026-04-25 21:58 | 39.61292 | 147.06206 | 32318 ft | 530 kts | 38° |
| 2026-04-25 21:58 | 39.66629 | 147.12817 | 32302 ft | 530 kts | 38° |
| 2026-04-25 21:59 | 39.71928 | 147.19398 | 32314 ft | 524 kts | 38° |
| 2026-04-25 21:59 | 39.77189 | 147.25940 | 32302 ft | 530 kts | 38° |
| 2026-04-25 22:00 | 39.85116 | 147.35837 | 32319 ft | 522 kts | 38° |
| 2026-04-25 22:00 | 39.90403 | 147.42448 | 32315 ft | 527 kts | 38° |
| 2026-04-25 22:01 | 39.95657 | 147.49040 | 32330 ft | 522 kts | 38° |
| 2026-04-25 22:01 | 39.99989 | 147.54485 | 32309 ft | 521 kts | 38° |
| 2026-04-25 22:02 | 40.06130 | 147.62218 | 32316 ft | 520 kts | 38° |
| 2026-04-25 22:02 | 40.11309 | 147.68758 | 32301 ft | 520 kts | 39° |
| 2026-04-25 22:03 | 40.16512 | 147.75342 | 32317 ft | 520 kts | 39° |
| 2026-04-25 22:03 | 40.21709 | 147.81934 | 32313 ft | 520 kts | 39° |
| 2026-04-25 22:04 | 40.26880 | 147.88507 | 32313 ft | 518 kts | 39° |
| 2026-04-25 22:04 | 40.32079 | 147.95131 | 32318 ft | 517 kts | 39° |
| 2026-04-25 22:05 | 40.37226 | 148.01703 | 32330 ft | 518 kts | 39° |
| 2026-04-25 22:05 | 40.42394 | 148.08318 | 32329 ft | 515 kts | 39° |
| 2026-04-25 22:06 | 40.47504 | 148.14870 | 32308 ft | 518 kts | 39° |
| 2026-04-25 22:06 | 40.52615 | 148.21442 | 32304 ft | 514 kts | 39° |
| 2026-04-25 22:07 | 40.56886 | 148.26944 | 32317 ft | 515 kts | 39° |
| 2026-04-25 22:07 | 40.62836 | 148.34627 | 32321 ft | 514 kts | 39° |
| 2026-04-25 22:08 | 40.67911 | 148.41197 | 32312 ft | 512 kts | 39° |
| 2026-04-25 22:08 | 40.72979 | 148.47769 | 32309 ft | 512 kts | 39° |
| 2026-04-25 22:09 | 40.78032 | 148.54340 | 32310 ft | 510 kts | 39° |
| 2026-04-25 22:09 | 40.83091 | 148.60933 | 32313 ft | 510 kts | 39° |
| 2026-04-25 22:10 | 40.88117 | 148.67496 | 32298 ft | 511 kts | 40° |
| 2026-04-25 22:10 | 40.93154 | 148.74089 | 32304 ft | 508 kts | 40° |
| 2026-04-25 22:11 | 40.98192 | 148.80699 | 32295 ft | 510 kts | 40° |
| 2026-04-25 22:11 | 41.03216 | 148.87308 | 32301 ft | 508 kts | 40° |
| 2026-04-25 22:12 | 41.08229 | 148.93913 | 32300 ft | 509 kts | 40° |
| 2026-04-25 22:12 | 41.12406 | 148.99434 | 32301 ft | 508 kts | 40° |
| 2026-04-25 22:13 | 41.18219 | 149.07135 | 32304 ft | 507 kts | 40° |
| 2026-04-25 22:13 | 41.23217 | 149.13774 | 32301 ft | 506 kts | 40° |
| 2026-04-25 22:14 | 41.28183 | 149.20384 | 32304 ft | 509 kts | 40° |
| 2026-04-25 22:14 | 41.33148 | 149.27010 | 32313 ft | 507 kts | 39° |
| 2026-04-25 22:15 | 41.38127 | 149.33667 | 32307 ft | 507 kts | 39° |
| 2026-04-25 22:16 | 41.45636 | 149.43739 | 32314 ft | 507 kts | 39° |
| 2026-04-25 22:16 | 41.50572 | 149.50377 | 32311 ft | 508 kts | 39° |
| 2026-04-25 22:17 | 41.55564 | 149.57108 | 32309 ft | 508 kts | 39° |
| 2026-04-25 22:17 | 41.60501 | 149.63779 | 32323 ft | 509 kts | 39° |
| 2026-04-25 22:18 | 41.65445 | 149.70476 | 32316 ft | 507 kts | 40° |
| 2026-04-25 22:18 | 41.70413 | 149.77220 | 32314 ft | 508 kts | 40° |
| 2026-04-25 22:19 | 41.75360 | 149.83954 | 32314 ft | 506 kts | 40° |
| 2026-04-25 22:19 | 41.80291 | 149.90678 | 32308 ft | 506 kts | 39° |
| 2026-04-25 22:20 | 41.85233 | 149.97433 | 32309 ft | 507 kts | 39° |
| 2026-04-25 22:20 | 41.90175 | 150.04205 | 32312 ft | 507 kts | 39° |
| 2026-04-25 22:21 | 41.95078 | 150.10941 | 32310 ft | 506 kts | 39° |
| 2026-04-25 22:21 | 42.00021 | 150.17746 | 32309 ft | 507 kts | 39° |
| 2026-04-25 22:22 | 42.04922 | 150.24510 | 32305 ft | 507 kts | 39° |
| 2026-04-25 22:22 | 42.09830 | 150.31297 | 32309 ft | 507 kts | 39° |
| 2026-04-25 22:23 | 42.14768 | 150.38145 | 32314 ft | 508 kts | 39° |
| 2026-04-25 22:23 | 42.19693 | 150.44992 | 32311 ft | 507 kts | 39° |
| 2026-04-25 22:24 | 42.24567 | 150.51781 | 32312 ft | 507 kts | 39° |
| 2026-04-25 22:24 | 42.29438 | 150.58585 | 32312 ft | 507 kts | 39° |
| 2026-04-25 22:25 | 42.34348 | 150.65457 | 32299 ft | 507 kts | 40° |
| 2026-04-25 22:25 | 42.39243 | 150.72325 | 32293 ft | 508 kts | 40° |
| 2026-04-25 22:26 | 42.44157 | 150.79237 | 32290 ft | 508 kts | 39° |
| 2026-04-25 22:26 | 42.49048 | 150.86134 | 32288 ft | 507 kts | 39° |
| 2026-04-25 22:27 | 42.53913 | 150.93010 | 32288 ft | 508 kts | 39° |
| 2026-04-25 22:27 | 42.58807 | 150.99944 | 32294 ft | 509 kts | 39° |
| 2026-04-25 22:28 | 42.63679 | 151.06862 | 32292 ft | 509 kts | 39° |
| 2026-04-25 22:28 | 42.68573 | 151.13831 | 32291 ft | 509 kts | 39° |
| 2026-04-25 22:29 | 42.73451 | 151.20793 | 32295 ft | 509 kts | 39° |
| 2026-04-25 22:29 | 42.78366 | 151.27823 | 32296 ft | 509 kts | 39° |
| 2026-04-25 22:30 | 42.85655 | 151.38284 | 32302 ft | 509 kts | 39° |
| 2026-04-25 22:30 | 42.89697 | 151.44101 | 32298 ft | 509 kts | 39° |
| 2026-04-25 22:31 | 42.95396 | 151.52322 | 32296 ft | 510 kts | 39° |
| 2026-04-25 22:31 | 43.00235 | 151.59323 | 32296 ft | 509 kts | 38° |
| 2026-04-25 22:32 | 43.05086 | 151.66357 | 32294 ft | 509 kts | 39° |
| 2026-04-25 22:32 | 43.09942 | 151.73415 | 32290 ft | 511 kts | 39° |
| 2026-04-25 22:33 | 43.14806 | 151.80504 | 32296 ft | 508 kts | 39° |
| 2026-04-25 22:33 | 43.19639 | 151.87566 | 32295 ft | 508 kts | 39° |
| 2026-04-25 22:34 | 43.24459 | 151.94624 | 32288 ft | 508 kts | 39° |
| 2026-04-25 22:34 | 43.29274 | 152.01695 | 32293 ft | 507 kts | 39° |
| 2026-04-25 22:35 | 43.34085 | 152.08774 | 32283 ft | 508 kts | 39° |
| 2026-04-25 22:35 | 43.38916 | 152.15903 | 32282 ft | 509 kts | 39° |
| 2026-04-25 22:36 | 43.43745 | 152.23047 | 32283 ft | 509 kts | 39° |
| 2026-04-25 22:36 | 43.48534 | 152.30150 | 32290 ft | 508 kts | 39° |
| 2026-04-25 22:37 | 43.53347 | 152.37303 | 32290 ft | 509 kts | 38° |
| 2026-04-25 22:37 | 43.58145 | 152.44455 | 32292 ft | 509 kts | 38° |
| 2026-04-25 22:38 | 43.62965 | 152.51657 | 32288 ft | 508 kts | 38° |
| 2026-04-25 22:38 | 43.67723 | 152.58784 | 32292 ft | 509 kts | 38° |
| 2026-04-25 22:39 | 43.72504 | 152.65967 | 32279 ft | 507 kts | 39° |
| 2026-04-25 22:39 | 43.77287 | 152.73166 | 32268 ft | 508 kts | 39° |
| 2026-04-25 22:40 | 43.82098 | 152.80429 | 32282 ft | 508 kts | 39° |
| 2026-04-25 22:40 | 43.86861 | 152.87636 | 32282 ft | 510 kts | 39° |
| 2026-04-25 22:41 | 43.91625 | 152.94865 | 32278 ft | 507 kts | 39° |
| 2026-04-25 22:41 | 43.96387 | 153.02107 | 32282 ft | 509 kts | 39° |
| 2026-04-25 22:42 | 44.01157 | 153.09381 | 32273 ft | 508 kts | 38° |
| 2026-04-25 22:42 | 44.05904 | 153.16637 | 32278 ft | 511 kts | 38° |
| 2026-04-25 22:43 | 44.10666 | 153.23938 | 32274 ft | 509 kts | 38° |
| 2026-04-25 22:43 | 44.15406 | 153.31226 | 32269 ft | 508 kts | 38° |
| 2026-04-25 22:44 | 44.20129 | 153.38501 | 32269 ft | 509 kts | 38° |
| 2026-04-25 22:44 | 44.24866 | 153.45818 | 32273 ft | 509 kts | 38° |
| 2026-04-25 22:45 | 44.29610 | 153.53168 | 32273 ft | 508 kts | 38° |
| 2026-04-25 22:45 | 44.34307 | 153.60461 | 32273 ft | 508 kts | 38° |
| 2026-04-25 22:46 | 44.39025 | 153.67806 | 32256 ft | 509 kts | 39° |
| 2026-04-25 22:46 | 44.43769 | 153.75209 | 32254 ft | 512 kts | 39° |
| 2026-04-25 22:47 | 44.48485 | 153.82594 | 32254 ft | 508 kts | 39° |
| 2026-04-25 22:47 | 44.53178 | 153.89955 | 32256 ft | 510 kts | 38° |
| 2026-04-25 22:48 | 44.57903 | 153.97392 | 32260 ft | 509 kts | 38° |
| 2026-04-25 22:48 | 44.62582 | 154.04771 | 32260 ft | 509 kts | 38° |
| 2026-04-25 22:49 | 44.67270 | 154.12184 | 32264 ft | 512 kts | 38° |
| 2026-04-25 22:49 | 44.71968 | 154.19636 | 32269 ft | 509 kts | 38° |
| 2026-04-25 22:50 | 44.76679 | 154.27125 | 32271 ft | 511 kts | 38° |
| 2026-04-25 22:50 | 44.81342 | 154.34563 | 32267 ft | 510 kts | 38° |
| 2026-04-25 22:51 | 44.86036 | 154.42067 | 32263 ft | 509 kts | 38° |
| 2026-04-25 22:51 | 44.90694 | 154.49690 | 32728 ft | 515 kts | 39° |
| 2026-04-25 22:52 | 44.93023 | 154.53534 | 33195 ft | 513 kts | 39° |
| 2026-04-25 22:52 | 44.95341 | 154.57361 | 33252 ft | 512 kts | 39° |
| 2026-04-25 22:52 | 44.99927 | 154.64941 | 33255 ft | 512 kts | 39° |
| 2026-04-25 22:53 | 45.04548 | 154.72595 | 33230 ft | 511 kts | 40° |
| 2026-04-25 22:53 | 45.09153 | 154.80240 | 33228 ft | 511 kts | 39° |
| 2026-04-25 22:54 | 45.13761 | 154.87909 | 33242 ft | 514 kts | 39° |
| 2026-04-25 22:54 | 45.18367 | 154.95602 | 33237 ft | 512 kts | 39° |
| 2026-04-25 22:55 | 45.22940 | 155.03259 | 33236 ft | 508 kts | 39° |
| 2026-04-25 22:55 | 45.27525 | 155.10948 | 33240 ft | 513 kts | 39° |
| 2026-04-25 22:56 | 45.32089 | 155.18631 | 33240 ft | 511 kts | 39° |
| 2026-04-25 22:56 | 45.36642 | 155.26315 | 33236 ft | 509 kts | 39° |
| 2026-04-25 22:57 | 45.41217 | 155.34058 | 33233 ft | 509 kts | 39° |
| 2026-04-25 22:57 | 45.45755 | 155.41757 | 33227 ft | 509 kts | 39° |
| 2026-04-25 22:58 | 45.50333 | 155.49545 | 33229 ft | 510 kts | 39° |
| 2026-04-25 22:58 | 45.54905 | 155.57342 | 33224 ft | 514 kts | 39° |
| 2026-04-25 22:59 | 45.59465 | 155.65150 | 33220 ft | 510 kts | 39° |
| 2026-04-25 22:59 | 45.64001 | 155.72931 | 33200 ft | 511 kts | 39° |
| 2026-04-25 23:00 | 45.68539 | 155.80739 | 33199 ft | 513 kts | 39° |
| 2026-04-25 23:00 | 45.73092 | 155.88597 | 33174 ft | 510 kts | 39° |
| 2026-04-25 23:01 | 45.77624 | 155.96433 | 33201 ft | 516 kts | 39° |
| 2026-04-25 23:01 | 45.82172 | 156.04327 | 33188 ft | 511 kts | 39° |
| 2026-04-25 23:02 | 45.86662 | 156.12141 | 33203 ft | 512 kts | 39° |
| 2026-04-25 23:02 | 45.91206 | 156.20065 | 33190 ft | 516 kts | 39° |
| 2026-04-25 23:03 | 45.95735 | 156.27995 | 33192 ft | 512 kts | 39° |
| 2026-04-25 23:03 | 46.00254 | 156.35922 | 33189 ft | 516 kts | 39° |
| 2026-04-25 23:04 | 46.04771 | 156.43877 | 33184 ft | 512 kts | 39° |
| 2026-04-25 23:04 | 46.09311 | 156.51891 | 33181 ft | 512 kts | 39° |
| 2026-04-25 23:05 | 46.13811 | 156.59851 | 33189 ft | 513 kts | 39° |
| 2026-04-25 23:05 | 46.18285 | 156.67792 | 33170 ft | 515 kts | 40° |
| 2026-04-25 23:06 | 46.22797 | 156.75825 | 33165 ft | 514 kts | 40° |
| 2026-04-25 23:06 | 46.27273 | 156.83823 | 33165 ft | 509 kts | 40° |
| 2026-04-25 23:07 | 46.31742 | 156.91818 | 33170 ft | 512 kts | 41° |
| 2026-04-25 23:07 | 46.36201 | 156.99826 | 33171 ft | 511 kts | 41° |
| 2026-04-25 23:08 | 46.40628 | 157.07799 | 33176 ft | 512 kts | 41° |
| 2026-04-25 23:08 | 46.45072 | 157.15825 | 33171 ft | 511 kts | 41° |
| 2026-04-25 23:09 | 46.49529 | 157.23898 | 33168 ft | 511 kts | 41° |
| 2026-04-25 23:09 | 46.53928 | 157.31892 | 33162 ft | 508 kts | 41° |
| 2026-04-25 23:10 | 46.58341 | 157.39928 | 33158 ft | 509 kts | 41° |
| 2026-04-25 23:10 | 46.62733 | 157.47952 | 33156 ft | 511 kts | 41° |
| 2026-04-25 23:11 | 46.67136 | 157.56023 | 33155 ft | 507 kts | 41° |
| 2026-04-25 23:11 | 46.71508 | 157.64056 | 33152 ft | 510 kts | 42° |
| 2026-04-25 23:12 | 46.75889 | 157.72130 | 33134 ft | 509 kts | 43° |
| 2026-04-25 23:12 | 46.80274 | 157.80237 | 33126 ft | 506 kts | 43° |
| 2026-04-25 23:13 | 46.84627 | 157.88309 | 33120 ft | 506 kts | 43° |
| 2026-04-25 23:13 | 46.88965 | 157.96372 | 33118 ft | 506 kts | 44° |
| 2026-04-25 23:14 | 46.93269 | 158.04401 | 33113 ft | 503 kts | 44° |
| 2026-04-25 23:14 | 46.97599 | 158.12497 | 33112 ft | 506 kts | 44° |
| 2026-04-25 23:15 | 47.01911 | 158.20584 | 33111 ft | 505 kts | 44° |
| 2026-04-25 23:15 | 47.06233 | 158.28714 | 33111 ft | 507 kts | 44° |
| 2026-04-25 23:16 | 47.10534 | 158.36830 | 33108 ft | 506 kts | 44° |
| 2026-04-25 23:16 | 47.14835 | 158.44972 | 33117 ft | 505 kts | 44° |
| 2026-04-25 23:17 | 47.19125 | 158.53114 | 33119 ft | 505 kts | 44° |
| 2026-04-25 23:17 | 47.23419 | 158.61287 | 33119 ft | 506 kts | 44° |
| 2026-04-25 23:18 | 47.27673 | 158.69409 | 33102 ft | 506 kts | 44° |
| 2026-04-25 23:18 | 47.31957 | 158.77612 | 33100 ft | 506 kts | 44° |
| 2026-04-25 23:19 | 47.36215 | 158.85792 | 33098 ft | 506 kts | 44° |
| 2026-04-25 23:19 | 47.40477 | 158.94003 | 33086 ft | 505 kts | 44° |
| 2026-04-25 23:20 | 47.44751 | 159.02258 | 33082 ft | 507 kts | 44° |
| 2026-04-25 23:20 | 47.48992 | 159.10481 | 33084 ft | 505 kts | 44° |
| 2026-04-25 23:21 | 47.53259 | 159.18776 | 33076 ft | 506 kts | 44° |
| 2026-04-25 23:21 | 47.57490 | 159.27025 | 33075 ft | 506 kts | 44° |
| 2026-04-25 23:22 | 47.61714 | 159.35284 | 33064 ft | 506 kts | 44° |
| 2026-04-25 23:23 | 47.68073 | 159.47768 | 33061 ft | 507 kts | 44° |
| 2026-04-25 23:23 | 47.72325 | 159.56149 | 33053 ft | 504 kts | 44° |
| 2026-04-25 23:24 | 47.76534 | 159.64467 | 33049 ft | 507 kts | 44° |
| 2026-04-25 23:24 | 47.80764 | 159.72852 | 33033 ft | 509 kts | 45° |
| 2026-04-25 23:25 | 47.84999 | 159.81277 | 33036 ft | 508 kts | 45° |
| 2026-04-25 23:25 | 47.89210 | 159.89677 | 33028 ft | 508 kts | 45° |
| 2026-04-25 23:26 | 47.93425 | 159.98112 | 33022 ft | 507 kts | 45° |
| 2026-04-25 23:26 | 47.97628 | 160.06547 | 33034 ft | 510 kts | 45° |
| 2026-04-25 23:27 | 48.01824 | 160.15001 | 33020 ft | 507 kts | 45° |
| 2026-04-25 23:27 | 48.06008 | 160.23451 | 33001 ft | 506 kts | 45° |
| 2026-04-25 23:28 | 48.10196 | 160.31932 | 33012 ft | 510 kts | 45° |
| 2026-04-25 23:28 | 48.14400 | 160.40479 | 33014 ft | 508 kts | 45° |
| 2026-04-25 23:29 | 48.18570 | 160.48982 | 33018 ft | 506 kts | 45° |
| 2026-04-25 23:29 | 48.22738 | 160.57503 | 33022 ft | 509 kts | 46° |
| 2026-04-25 23:30 | 48.26867 | 160.65981 | 32998 ft | 506 kts | 47° |
| 2026-04-25 23:30 | 48.30949 | 160.74698 | 32988 ft | 510 kts | 48° |
| 2026-04-25 23:31 | 48.34954 | 160.83383 | 32990 ft | 508 kts | 48° |
| 2026-04-25 23:31 | 48.38988 | 160.92154 | 32990 ft | 511 kts | 48° |
| 2026-04-25 23:32 | 48.43020 | 161.00952 | 32990 ft | 508 kts | 48° |
| 2026-04-25 23:32 | 48.47009 | 161.09686 | 32984 ft | 509 kts | 48° |
| 2026-04-25 23:33 | 48.51016 | 161.18484 | 32976 ft | 509 kts | 49° |
| 2026-04-25 23:33 | 48.54993 | 161.27251 | 32970 ft | 508 kts | 49° |
| 2026-04-25 23:34 | 48.58995 | 161.36098 | 32975 ft | 508 kts | 49° |
| 2026-04-25 23:34 | 48.62945 | 161.44859 | 32960 ft | 507 kts | 49° |
| 2026-04-25 23:35 | 48.66907 | 161.53674 | 32953 ft | 509 kts | 49° |
| 2026-04-25 23:35 | 48.70851 | 161.62482 | 32951 ft | 506 kts | 49° |
| 2026-04-25 23:36 | 48.74809 | 161.71343 | 32931 ft | 510 kts | 50° |
| 2026-04-25 23:36 | 48.78744 | 161.80190 | 32932 ft | 509 kts | 50° |
| 2026-04-25 23:37 | 48.82684 | 161.89072 | 32940 ft | 508 kts | 50° |
| 2026-04-25 23:37 | 48.86597 | 161.97923 | 32927 ft | 508 kts | 50° |
| 2026-04-25 23:38 | 48.90521 | 162.06831 | 32915 ft | 507 kts | 50° |
| 2026-04-25 23:38 | 48.94432 | 162.15736 | 32938 ft | 508 kts | 50° |
| 2026-04-25 23:39 | 48.98332 | 162.24646 | 32928 ft | 508 kts | 50° |
| 2026-04-25 23:39 | 49.02230 | 162.33581 | 32929 ft | 507 kts | 51° |
| 2026-04-25 23:40 | 49.06113 | 162.42513 | 32938 ft | 507 kts | 51° |
| 2026-04-25 23:40 | 49.09996 | 162.51474 | 32933 ft | 507 kts | 51° |
| 2026-04-25 23:41 | 49.13851 | 162.60402 | 32936 ft | 507 kts | 51° |
| 2026-04-25 23:41 | 49.17724 | 162.69397 | 32928 ft | 508 kts | 52° |
| 2026-04-25 23:42 | 49.21585 | 162.78400 | 32924 ft | 506 kts | 52° |
| 2026-04-25 23:42 | 49.25431 | 162.87396 | 32923 ft | 506 kts | 52° |
| 2026-04-25 23:43 | 49.29266 | 162.96396 | 32922 ft | 505 kts | 52° |
| 2026-04-25 23:43 | 49.33115 | 163.05458 | 32922 ft | 507 kts | 52° |
| 2026-04-25 23:44 | 49.36937 | 163.14490 | 32920 ft | 506 kts | 52° |
| 2026-04-25 23:44 | 49.40740 | 163.23506 | 32923 ft | 506 kts | 52° |
| 2026-04-25 23:45 | 49.44559 | 163.32591 | 32920 ft | 506 kts | 52° |
| 2026-04-25 23:45 | 49.48349 | 163.41640 | 32921 ft | 505 kts | 52° |
| 2026-04-25 23:46 | 49.52128 | 163.50690 | 32920 ft | 506 kts | 52° |
| 2026-04-25 23:46 | 49.55908 | 163.59776 | 32920 ft | 505 kts | 52° |
| 2026-04-25 23:47 | 49.59682 | 163.68878 | 32913 ft | 505 kts | 53° |
| 2026-04-25 23:47 | 49.63437 | 163.77965 | 32902 ft | 506 kts | 53° |
| 2026-04-25 23:48 | 49.67184 | 163.87065 | 32892 ft | 504 kts | 53° |
| 2026-04-25 23:48 | 49.70927 | 163.96187 | 32895 ft | 503 kts | 53° |
| 2026-04-25 23:49 | 49.74656 | 164.05304 | 32894 ft | 504 kts | 53° |
| 2026-04-25 23:49 | 49.78370 | 164.14418 | 32893 ft | 505 kts | 53° |
| 2026-04-25 23:50 | 49.82089 | 164.23573 | 32884 ft | 505 kts | 53° |
| 2026-04-25 23:50 | 49.85814 | 164.32777 | 32885 ft | 506 kts | 53° |
| 2026-04-25 23:51 | 49.90130 | 164.43483 | 32880 ft | 504 kts | 53° |
| 2026-04-25 23:51 | 49.93231 | 164.51199 | 32874 ft | 505 kts | 53° |
| 2026-04-25 23:52 | 49.97534 | 164.61948 | 32873 ft | 504 kts | 53° |
| 2026-04-25 23:52 | 50.01221 | 164.71191 | 32872 ft | 505 kts | 54° |
| 2026-04-25 23:53 | 50.04288 | 164.78905 | 32861 ft | 504 kts | 54° |
| 2026-04-25 23:53 | 50.07941 | 164.88124 | 32866 ft | 504 kts | 54° |
| 2026-04-25 23:54 | 50.11618 | 164.97435 | 32864 ft | 505 kts | 54° |
| 2026-04-25 23:54 | 50.15274 | 165.06729 | 32863 ft | 504 kts | 54° |
| 2026-04-25 23:55 | 50.20065 | 165.16882 | 32865 ft | 498 kts | 42° |
| 2026-04-25 23:55 | 50.24030 | 165.23361 | 32853 ft | 498 kts | 42° |
| 2026-04-25 23:56 | 50.28802 | 165.31201 | 32851 ft | 498 kts | 42° |
| 2026-04-25 23:56 | 50.33510 | 165.38995 | 32845 ft | 498 kts | 43° |
| 2026-04-25 23:57 | 50.38254 | 165.46896 | 32840 ft | 497 kts | 43° |
| 2026-04-25 23:57 | 50.42934 | 165.54727 | 32843 ft | 497 kts | 43° |
| 2026-04-25 23:58 | 50.47662 | 165.62668 | 32840 ft | 496 kts | 43° |
| 2026-04-25 23:58 | 50.52330 | 165.70537 | 32833 ft | 497 kts | 44° |
| 2026-04-25 23:59 | 50.57035 | 165.78494 | 32830 ft | 497 kts | 44° |
| 2026-04-25 23:59 | 50.61691 | 165.86395 | 32823 ft | 496 kts | 44° |
| 2026-04-26 00:00 | 50.67141 | 165.95676 | 32817 ft | 496 kts | 44° |
| 2026-04-26 00:00 | 50.71046 | 166.02347 | 32817 ft | 496 kts | 44° |
| 2026-04-26 00:01 | 50.75703 | 166.10324 | 32811 ft | 497 kts | 44° |
| 2026-04-26 00:01 | 50.80350 | 166.18312 | 32811 ft | 498 kts | 44° |
| 2026-04-26 00:02 | 50.85020 | 166.26364 | 32811 ft | 497 kts | 44° |
| 2026-04-26 00:02 | 50.89646 | 166.34364 | 32799 ft | 496 kts | 44° |
| 2026-04-26 00:03 | 50.94312 | 166.42461 | 32805 ft | 497 kts | 44° |
| 2026-04-26 00:03 | 50.98941 | 166.50520 | 32805 ft | 497 kts | 44° |
| 2026-04-26 00:04 | 51.03574 | 166.58611 | 32802 ft | 496 kts | 44° |
| 2026-04-26 00:04 | 51.08217 | 166.66744 | 32797 ft | 497 kts | 45° |
| 2026-04-26 00:05 | 51.12831 | 166.74852 | 32789 ft | 497 kts | 45° |
| 2026-04-26 00:05 | 51.17426 | 166.82956 | 32787 ft | 496 kts | 45° |
| 2026-04-26 00:06 | 51.22045 | 166.91126 | 32783 ft | 496 kts | 45° |
| 2026-04-26 00:06 | 51.26631 | 166.99265 | 32775 ft | 496 kts | 46° |
| 2026-04-26 00:07 | 51.31981 | 167.08792 | 32772 ft | 496 kts | 46° |
| 2026-04-26 00:07 | 51.36575 | 167.17001 | 32768 ft | 496 kts | 46° |
| 2026-04-26 00:08 | 51.41158 | 167.25220 | 32761 ft | 496 kts | 46° |
| 2026-04-26 00:08 | 51.45730 | 167.33444 | 32756 ft | 495 kts | 46° |
| 2026-04-26 00:09 | 51.49541 | 167.40320 | 32752 ft | 494 kts | 46° |
| 2026-04-26 00:09 | 51.54845 | 167.49921 | 32745 ft | 494 kts | 46° |
| 2026-04-26 00:10 | 51.59395 | 167.58186 | 32734 ft | 495 kts | 46° |
| 2026-04-26 00:10 | 51.63163 | 167.65051 | 32729 ft | 496 kts | 47° |
| 2026-04-26 00:11 | 51.68474 | 167.74759 | 32720 ft | 496 kts | 47° |
| 2026-04-26 00:11 | 51.73006 | 167.83073 | 32717 ft | 495 kts | 47° |
| 2026-04-26 00:12 | 51.77543 | 167.91425 | 32711 ft | 496 kts | 47° |
| 2026-04-26 00:12 | 51.82070 | 167.99785 | 32711 ft | 495 kts | 47° |
| 2026-04-26 00:13 | 51.86595 | 168.08168 | 32708 ft | 495 kts | 47° |
| 2026-04-26 00:13 | 51.91074 | 168.16496 | 32706 ft | 496 kts | 47° |
| 2026-04-26 00:14 | 51.95644 | 168.25018 | 32703 ft | 496 kts | 47° |
| 2026-04-26 00:14 | 52.00084 | 168.33330 | 32695 ft | 495 kts | 47° |
| 2026-04-26 00:15 | 52.04596 | 168.41801 | 32685 ft | 496 kts | 47° |
| 2026-04-26 00:15 | 52.09085 | 168.50259 | 32687 ft | 496 kts | 47° |
| 2026-04-26 00:16 | 52.13587 | 168.58769 | 32684 ft | 496 kts | 47° |
| 2026-04-26 00:16 | 52.18051 | 168.67238 | 32672 ft | 495 kts | 49° |
| 2026-04-26 00:17 | 52.22514 | 168.75729 | 32663 ft | 496 kts | 49° |
| 2026-04-26 00:17 | 52.26985 | 168.84270 | 32654 ft | 496 kts | 49° |
| 2026-04-26 00:18 | 52.30701 | 168.91388 | 32651 ft | 497 kts | 49° |
| 2026-04-26 00:18 | 52.35914 | 169.01407 | 32639 ft | 497 kts | 49° |
| 2026-04-26 00:19 | 52.40383 | 169.10030 | 32638 ft | 497 kts | 49° |
| 2026-04-26 00:19 | 52.44814 | 169.18607 | 32628 ft | 496 kts | 49° |
| 2026-04-26 00:20 | 52.49278 | 169.27280 | 32630 ft | 497 kts | 49° |
| 2026-04-26 00:20 | 52.53689 | 169.35877 | 32620 ft | 497 kts | 49° |
| 2026-04-26 00:21 | 52.58125 | 169.44554 | 32619 ft | 497 kts | 49° |
| 2026-04-26 00:21 | 52.62564 | 169.53265 | 32626 ft | 497 kts | 49° |
| 2026-04-26 00:22 | 52.66958 | 169.61920 | 32629 ft | 497 kts | 49° |
| 2026-04-26 00:22 | 52.71382 | 169.70664 | 32629 ft | 496 kts | 50° |
| 2026-04-26 00:23 | 52.75777 | 169.79381 | 32620 ft | 496 kts | 50° |
| 2026-04-26 00:23 | 52.80169 | 169.88119 | 32600 ft | 496 kts | 50° |
| 2026-04-26 00:24 | 52.84539 | 169.96848 | 32608 ft | 496 kts | 50° |
| 2026-04-26 00:24 | 52.88906 | 170.05598 | 32600 ft | 495 kts | 50° |
| 2026-04-26 00:25 | 52.93310 | 170.14371 | 32601 ft | 496 kts | 47° |
| 2026-04-26 00:25 | 52.98528 | 170.21719 | 32608 ft | 496 kts | 36° |
| 2026-04-26 00:26 | 53.04030 | 170.28589 | 32600 ft | 496 kts | 37° |
| 2026-04-26 00:26 | 53.09505 | 170.35501 | 32608 ft | 495 kts | 37° |
| 2026-04-26 00:27 | 53.14980 | 170.42470 | 32609 ft | 495 kts | 37° |
| 2026-04-26 00:27 | 53.20444 | 170.49468 | 32608 ft | 494 kts | 37° |
| 2026-04-26 00:28 | 53.25923 | 170.56516 | 32616 ft | 495 kts | 37° |
| 2026-04-26 00:28 | 53.31376 | 170.63560 | 32618 ft | 495 kts | 37° |
| 2026-04-26 00:29 | 53.36818 | 170.70616 | 32621 ft | 496 kts | 38° |
| 2026-04-26 00:29 | 53.42267 | 170.77708 | 32621 ft | 495 kts | 38° |
| 2026-04-26 00:30 | 53.47730 | 170.84842 | 32621 ft | 495 kts | 38° |
| 2026-04-26 00:30 | 53.53153 | 170.91948 | 32614 ft | 494 kts | 38° |
| 2026-04-26 00:31 | 53.58581 | 170.99085 | 32620 ft | 495 kts | 38° |
| 2026-04-26 00:31 | 53.64042 | 171.06288 | 32618 ft | 494 kts | 38° |
| 2026-04-26 00:32 | 53.69477 | 171.13483 | 32623 ft | 495 kts | 38° |
| 2026-04-26 00:32 | 53.77581 | 171.24255 | 32616 ft | 495 kts | 39° |
| 2026-04-26 00:33 | 53.82997 | 171.31486 | 32614 ft | 494 kts | 39° |
| 2026-04-26 00:33 | 53.88387 | 171.38707 | 32624 ft | 494 kts | 39° |
| 2026-04-26 00:34 | 53.93792 | 171.45970 | 32622 ft | 494 kts | 39° |
| 2026-04-26 00:34 | 53.99233 | 171.53308 | 32628 ft | 494 kts | 39° |
| 2026-04-26 00:35 | 54.04635 | 171.60617 | 32622 ft | 494 kts | 39° |
| 2026-04-26 00:35 | 54.09987 | 171.67885 | 32636 ft | 493 kts | 40° |
| 2026-04-26 00:36 | 54.15334 | 171.75171 | 32621 ft | 493 kts | 40° |
| 2026-04-26 00:36 | 54.20660 | 171.82452 | 32626 ft | 494 kts | 40° |
| 2026-04-26 00:37 | 54.26049 | 171.89845 | 32626 ft | 494 kts | 40° |
| 2026-04-26 00:37 | 54.31430 | 171.97253 | 32625 ft | 495 kts | 40° |
| 2026-04-26 00:38 | 54.36785 | 172.04649 | 32622 ft | 494 kts | 40° |
| 2026-04-26 00:38 | 54.42146 | 172.12080 | 32622 ft | 495 kts | 40° |
| 2026-04-26 00:39 | 54.47477 | 172.19495 | 32618 ft | 495 kts | 40° |
| 2026-04-26 00:39 | 54.51949 | 172.25735 | 32613 ft | 495 kts | 40° |
| 2026-04-26 00:40 | 54.58173 | 172.34450 | 32618 ft | 495 kts | 40° |
| 2026-04-26 00:40 | 54.63517 | 172.41962 | 32621 ft | 496 kts | 40° |
| 2026-04-26 00:41 | 54.68893 | 172.49544 | 32626 ft | 495 kts | 40° |
| 2026-04-26 00:41 | 54.74201 | 172.57056 | 32633 ft | 494 kts | 40° |
| 2026-04-26 00:42 | 54.79532 | 172.64629 | 32622 ft | 495 kts | 40° |
| 2026-04-26 00:42 | 54.84868 | 172.72234 | 32639 ft | 495 kts | 41° |
| 2026-04-26 00:43 | 54.90189 | 172.79846 | 32634 ft | 496 kts | 41° |
| 2026-04-26 00:43 | 54.95552 | 172.87546 | 32642 ft | 496 kts | 41° |
| 2026-04-26 00:44 | 55.00849 | 172.95175 | 32632 ft | 495 kts | 41° |
| 2026-04-26 00:44 | 55.06162 | 173.02858 | 32637 ft | 496 kts | 41° |
| 2026-04-26 00:45 | 55.10606 | 173.09303 | 32624 ft | 496 kts | 41° |
| 2026-04-26 00:45 | 55.16756 | 173.18256 | 32619 ft | 496 kts | 41° |
| 2026-04-26 00:46 | 55.22017 | 173.25943 | 32630 ft | 496 kts | 42° |
| 2026-04-26 00:46 | 55.27316 | 173.33716 | 32615 ft | 496 kts | 42° |
| 2026-04-26 00:47 | 55.32601 | 173.41495 | 32628 ft | 496 kts | 42° |
| 2026-04-26 00:47 | 55.37850 | 173.49248 | 32616 ft | 497 kts | 42° |
| 2026-04-26 00:48 | 55.43152 | 173.57109 | 32622 ft | 497 kts | 42° |
| 2026-04-26 00:48 | 55.48434 | 173.64967 | 32611 ft | 498 kts | 42° |
| 2026-04-26 00:49 | 55.53731 | 173.72878 | 32625 ft | 498 kts | 43° |
| 2026-04-26 00:49 | 55.58997 | 173.80769 | 32627 ft | 497 kts | 43° |
| 2026-04-26 00:50 | 55.64258 | 173.88684 | 32621 ft | 498 kts | 43° |
| 2026-04-26 00:50 | 55.69521 | 173.96631 | 32617 ft | 498 kts | 43° |
| 2026-04-26 00:51 | 55.74804 | 174.04636 | 32616 ft | 499 kts | 43° |
| 2026-04-26 00:51 | 55.80059 | 174.12628 | 32619 ft | 499 kts | 43° |
| 2026-04-26 00:52 | 55.85316 | 174.20651 | 32615 ft | 499 kts | 43° |
| 2026-04-26 00:52 | 55.90539 | 174.28654 | 32621 ft | 499 kts | 43° |
| 2026-04-26 00:53 | 55.95813 | 174.36766 | 32617 ft | 499 kts | 43° |
| 2026-04-26 00:53 | 56.01047 | 174.44846 | 32613 ft | 501 kts | 43° |
| 2026-04-26 00:54 | 56.06311 | 174.53001 | 32607 ft | 501 kts | 43° |
| 2026-04-26 00:54 | 56.11540 | 174.61133 | 32603 ft | 501 kts | 43° |
| 2026-04-26 00:55 | 56.16792 | 174.69331 | 32607 ft | 500 kts | 44° |
| 2026-04-26 00:55 | 56.22022 | 174.77527 | 32612 ft | 501 kts | 44° |
| 2026-04-26 00:56 | 56.27291 | 174.85815 | 32618 ft | 501 kts | 44° |
| 2026-04-26 00:56 | 56.32507 | 174.94051 | 32613 ft | 501 kts | 44° |
| 2026-04-26 00:57 | 56.37752 | 175.02364 | 32617 ft | 502 kts | 44° |
| 2026-04-26 00:57 | 56.43002 | 175.10715 | 32617 ft | 502 kts | 44° |
| 2026-04-26 00:58 | 56.48231 | 175.19066 | 32613 ft | 501 kts | 44° |
| 2026-04-26 00:58 | 56.53420 | 175.27385 | 32609 ft | 502 kts | 44° |
| 2026-04-26 00:59 | 56.58663 | 175.35823 | 32604 ft | 503 kts | 44° |
| 2026-04-26 00:59 | 56.63859 | 175.44217 | 32611 ft | 503 kts | 44° |
| 2026-04-26 01:00 | 56.69089 | 175.52698 | 32619 ft | 503 kts | 44° |
| 2026-04-26 01:00 | 56.74284 | 175.61156 | 32613 ft | 504 kts | 44° |
| 2026-04-26 01:01 | 56.79473 | 175.69636 | 32618 ft | 504 kts | 45° |
| 2026-04-26 01:01 | 56.84721 | 175.78247 | 32626 ft | 504 kts | 45° |
| 2026-04-26 01:02 | 56.89954 | 175.86867 | 32627 ft | 505 kts | 45° |
| 2026-04-26 01:02 | 56.95169 | 175.95489 | 32624 ft | 504 kts | 46° |
| 2026-04-26 01:03 | 57.00362 | 176.04112 | 32615 ft | 504 kts | 46° |
| 2026-04-26 01:03 | 57.05544 | 176.12749 | 32618 ft | 505 kts | 46° |
| 2026-04-26 01:04 | 57.10714 | 176.21402 | 32621 ft | 505 kts | 46° |
| 2026-04-26 01:04 | 57.15904 | 176.30119 | 32621 ft | 505 kts | 46° |
| 2026-04-26 01:05 | 57.21054 | 176.38806 | 32619 ft | 506 kts | 45° |
| 2026-04-26 01:05 | 57.26211 | 176.47537 | 32612 ft | 505 kts | 46° |
| 2026-04-26 01:06 | 57.31377 | 176.56322 | 32619 ft | 505 kts | 46° |
| 2026-04-26 01:06 | 57.36544 | 176.65140 | 32611 ft | 505 kts | 46° |
| 2026-04-26 01:07 | 57.41708 | 176.73990 | 32608 ft | 506 kts | 46° |
| 2026-04-26 01:07 | 57.46829 | 176.82802 | 32613 ft | 507 kts | 46° |
| 2026-04-26 01:08 | 57.51957 | 176.91660 | 32616 ft | 506 kts | 46° |
| 2026-04-26 01:08 | 57.57111 | 177.00601 | 32627 ft | 507 kts | 46° |
| 2026-04-26 01:09 | 57.62262 | 177.09570 | 32629 ft | 508 kts | 46° |
| 2026-04-26 01:09 | 57.67444 | 177.18631 | 32623 ft | 507 kts | 46° |
| 2026-04-26 01:10 | 57.72612 | 177.27708 | 32623 ft | 509 kts | 46° |
| 2026-04-26 01:10 | 57.77747 | 177.36763 | 32622 ft | 509 kts | 46° |
| 2026-04-26 01:11 | 57.82892 | 177.45871 | 32625 ft | 510 kts | 46° |
| 2026-04-26 01:11 | 57.88019 | 177.54984 | 32634 ft | 510 kts | 46° |
| 2026-04-26 01:12 | 57.93193 | 177.64221 | 32625 ft | 510 kts | 46° |
| 2026-04-26 01:12 | 57.98282 | 177.73343 | 32623 ft | 510 kts | 47° |
| 2026-04-26 01:13 | 58.03392 | 177.82541 | 32630 ft | 511 kts | 47° |
| 2026-04-26 01:13 | 58.08514 | 177.91800 | 32629 ft | 511 kts | 47° |
| 2026-04-26 01:14 | 58.13641 | 178.01105 | 32621 ft | 511 kts | 47° |
| 2026-04-26 01:14 | 58.18734 | 178.10387 | 32621 ft | 512 kts | 47° |
| 2026-04-26 01:15 | 58.23842 | 178.19737 | 32622 ft | 512 kts | 47° |
| 2026-04-26 01:15 | 58.28876 | 178.28990 | 32620 ft | 512 kts | 47° |
| 2026-04-26 01:16 | 58.33957 | 178.38370 | 32622 ft | 513 kts | 47° |
| 2026-04-26 01:16 | 58.39067 | 178.47841 | 32623 ft | 513 kts | 47° |
| 2026-04-26 01:17 | 58.44144 | 178.57291 | 32623 ft | 513 kts | 47° |
| 2026-04-26 01:17 | 58.49226 | 178.66792 | 32627 ft | 514 kts | 48° |
| 2026-04-26 01:18 | 58.54337 | 178.76388 | 32620 ft | 513 kts | 48° |
| 2026-04-26 01:18 | 58.59398 | 178.85933 | 32631 ft | 514 kts | 48° |
| 2026-04-26 01:19 | 58.64453 | 178.95505 | 32638 ft | 514 kts | 48° |
| 2026-04-26 01:19 | 58.69529 | 179.05159 | 32652 ft | 514 kts | 48° |
| 2026-04-26 01:20 | 58.74591 | 179.14828 | 32655 ft | 516 kts | 48° |
| 2026-04-26 01:20 | 58.79652 | 179.24536 | 32653 ft | 516 kts | 48° |
| 2026-04-26 01:21 | 58.84717 | 179.34297 | 32652 ft | 517 kts | 48° |
| 2026-04-26 01:21 | 58.89788 | 179.44112 | 32656 ft | 517 kts | 48° |
| 2026-04-26 01:22 | 58.94830 | 179.53912 | 32667 ft | 517 kts | 48° |
| 2026-04-26 01:22 | 58.99892 | 179.63797 | 32660 ft | 517 kts | 48° |
| 2026-04-26 01:23 | 59.04929 | 179.73674 | 32655 ft | 517 kts | 49° |
| 2026-04-26 01:23 | 59.09967 | 179.83598 | 32649 ft | 516 kts | 49° |
| 2026-04-26 01:24 | 59.14989 | 179.93535 | 32643 ft | 516 kts | 49° |
| 2026-04-26 01:24 | 59.20011 | -179.96483 | 32651 ft | 518 kts | 49° |
| 2026-04-26 01:25 | 59.25027 | -179.86469 | 32649 ft | 518 kts | 49° |
| 2026-04-26 01:25 | 59.30031 | -179.76434 | 32648 ft | 519 kts | 49° |
| 2026-04-26 01:26 | 59.35039 | -179.66347 | 32649 ft | 519 kts | 49° |
| 2026-04-26 01:26 | 59.40038 | -179.56232 | 32652 ft | 519 kts | 48° |
| 2026-04-26 01:27 | 59.45032 | -179.46081 | 32660 ft | 520 kts | 49° |
| 2026-04-26 01:27 | 59.50040 | -179.35854 | 32658 ft | 521 kts | 49° |
| 2026-04-26 01:28 | 59.55025 | -179.25629 | 32666 ft | 520 kts | 49° |
| 2026-04-26 01:28 | 59.60019 | -179.15338 | 32672 ft | 520 kts | 49° |
| 2026-04-26 01:29 | 59.65007 | -179.05013 | 32679 ft | 520 kts | 49° |
| 2026-04-26 01:29 | 59.69985 | -178.94661 | 32684 ft | 521 kts | 49° |
| 2026-04-26 01:30 | 59.74970 | -178.84244 | 32687 ft | 522 kts | 49° |
| 2026-04-26 01:30 | 59.79921 | -178.73854 | 32689 ft | 521 kts | 49° |
| 2026-04-26 01:31 | 59.84899 | -178.63358 | 32696 ft | 522 kts | 49° |
| 2026-04-26 01:31 | 59.89837 | -178.52896 | 32689 ft | 522 kts | 49° |
| 2026-04-26 01:32 | 59.94805 | -178.42320 | 32707 ft | 523 kts | 50° |
| 2026-04-26 01:32 | 59.99779 | -178.31685 | 32706 ft | 522 kts | 50° |
| 2026-04-26 01:33 | 60.04680 | -178.21152 | 32694 ft | 522 kts | 50° |
| 2026-04-26 01:33 | 60.09608 | -178.10515 | 32695 ft | 522 kts | 49° |
| 2026-04-26 01:34 | 60.14513 | -177.99876 | 32698 ft | 522 kts | 49° |
| 2026-04-26 01:34 | 60.19449 | -177.89121 | 32701 ft | 523 kts | 49° |
| 2026-04-26 01:35 | 60.24867 | -177.79427 | 32708 ft | 526 kts | 39° |
| 2026-04-26 01:35 | 60.30576 | -177.70358 | 32690 ft | 526 kts | 39° |
| 2026-04-26 01:36 | 60.36269 | -177.61124 | 32722 ft | 526 kts | 40° |
| 2026-04-26 01:37 | 60.44734 | -177.47154 | 32722 ft | 525 kts | 40° |
| 2026-04-26 01:37 | 60.50332 | -177.37808 | 32737 ft | 526 kts | 40° |
| 2026-04-26 01:38 | 60.55943 | -177.28375 | 32729 ft | 524 kts | 41° |
| 2026-04-26 01:38 | 60.61571 | -177.18855 | 32742 ft | 526 kts | 41° |
| 2026-04-26 01:39 | 60.67193 | -177.09296 | 32754 ft | 524 kts | 41° |
| 2026-04-26 01:39 | 60.72766 | -176.99768 | 32731 ft | 525 kts | 41° |
| 2026-04-26 01:40 | 60.78347 | -176.90183 | 32754 ft | 525 kts | 41° |
| 2026-04-26 01:40 | 60.83949 | -176.80512 | 32733 ft | 525 kts | 41° |
| 2026-04-26 01:41 | 60.89523 | -176.70844 | 32751 ft | 525 kts | 41° |
| 2026-04-26 01:41 | 60.95046 | -176.61218 | 32749 ft | 525 kts | 41° |
| 2026-04-26 01:42 | 61.00600 | -176.51492 | 32755 ft | 525 kts | 41° |
| 2026-04-26 01:42 | 61.06147 | -176.41734 | 32762 ft | 524 kts | 41° |
| 2026-04-26 01:43 | 61.11703 | -176.31911 | 32753 ft | 524 kts | 41° |
| 2026-04-26 01:43 | 61.17191 | -176.22162 | 32765 ft | 521 kts | 41° |
| 2026-04-26 01:44 | 61.22704 | -176.12321 | 32768 ft | 524 kts | 41° |
| 2026-04-26 01:44 | 61.28173 | -176.02515 | 32764 ft | 521 kts | 41° |
| 2026-04-26 01:45 | 61.33677 | -175.92595 | 32767 ft | 521 kts | 41° |
| 2026-04-26 01:45 | 61.39129 | -175.82722 | 32773 ft | 521 kts | 41° |
| 2026-04-26 01:46 | 61.44573 | -175.72818 | 32771 ft | 521 kts | 41° |
| 2026-04-26 01:46 | 61.50037 | -175.62828 | 32785 ft | 520 kts | 41° |
| 2026-04-26 01:47 | 61.55461 | -175.52863 | 32774 ft | 521 kts | 41° |
| 2026-04-26 01:47 | 61.60892 | -175.42836 | 32786 ft | 520 kts | 41° |
| 2026-04-26 01:48 | 61.66291 | -175.32822 | 32795 ft | 519 kts | 42° |
| 2026-04-26 01:48 | 61.71747 | -175.22650 | 32799 ft | 519 kts | 42° |
| 2026-04-26 01:49 | 61.77095 | -175.12633 | 32796 ft | 519 kts | 42° |
| 2026-04-26 01:49 | 61.82480 | -175.02498 | 32801 ft | 518 kts | 42° |
| 2026-04-26 01:50 | 61.87862 | -174.92316 | 32792 ft | 517 kts | 42° |
| 2026-04-26 01:50 | 61.93165 | -174.82234 | 32806 ft | 517 kts | 42° |
| 2026-04-26 01:51 | 61.98513 | -174.72018 | 32799 ft | 517 kts | 42° |
| 2026-04-26 01:51 | 62.03802 | -174.61865 | 32805 ft | 516 kts | 42° |
| 2026-04-26 01:52 | 62.09095 | -174.51656 | 32811 ft | 517 kts | 42° |
| 2026-04-26 01:52 | 62.14429 | -174.41316 | 32809 ft | 514 kts | 42° |
| 2026-04-26 01:53 | 62.19709 | -174.31029 | 32817 ft | 515 kts | 43° |
| 2026-04-26 01:53 | 62.24955 | -174.20761 | 32826 ft | 513 kts | 43° |
| 2026-04-26 01:54 | 62.30196 | -174.10449 | 32825 ft | 514 kts | 43° |
| 2026-04-26 01:54 | 62.35456 | -174.00047 | 32832 ft | 513 kts | 43° |
| 2026-04-26 01:55 | 62.40695 | -173.89638 | 32832 ft | 512 kts | 43° |
| 2026-04-26 01:55 | 62.45923 | -173.79198 | 32833 ft | 512 kts | 43° |
| 2026-04-26 01:56 | 62.51087 | -173.68832 | 32839 ft | 511 kts | 43° |
| 2026-04-26 01:56 | 62.56267 | -173.58383 | 32842 ft | 509 kts | 43° |
| 2026-04-26 01:57 | 62.61396 | -173.47987 | 32847 ft | 510 kts | 43° |
| 2026-04-26 01:57 | 62.66588 | -173.37410 | 32845 ft | 509 kts | 43° |
| 2026-04-26 01:58 | 62.71697 | -173.26952 | 32839 ft | 508 kts | 44° |
| 2026-04-26 01:58 | 62.76838 | -173.16373 | 32844 ft | 507 kts | 44° |
| 2026-04-26 01:59 | 62.81945 | -173.05812 | 32856 ft | 507 kts | 44° |
| 2026-04-26 01:59 | 62.87060 | -172.95180 | 32868 ft | 505 kts | 44° |
| 2026-04-26 02:00 | 62.92112 | -172.84625 | 32870 ft | 506 kts | 44° |
| 2026-04-26 02:00 | 62.97172 | -172.74002 | 32874 ft | 505 kts | 44° |
| 2026-04-26 02:01 | 63.02211 | -172.63368 | 32878 ft | 503 kts | 44° |
| 2026-04-26 02:01 | 63.07273 | -172.52635 | 32884 ft | 503 kts | 44° |
| 2026-04-26 02:02 | 63.12272 | -172.41978 | 32879 ft | 504 kts | 44° |
| 2026-04-26 02:02 | 63.17296 | -172.31215 | 32883 ft | 503 kts | 45° |
| 2026-04-26 02:03 | 63.22298 | -172.20445 | 32887 ft | 504 kts | 45° |
| 2026-04-26 02:03 | 63.27313 | -172.09590 | 32894 ft | 503 kts | 45° |
| 2026-04-26 02:04 | 63.32292 | -171.98761 | 32902 ft | 502 kts | 45° |
| 2026-04-26 02:04 | 63.37272 | -171.87871 | 32898 ft | 502 kts | 45° |
| 2026-04-26 02:05 | 63.42243 | -171.76945 | 32889 ft | 501 kts | 45° |
| 2026-04-26 02:05 | 63.47188 | -171.66022 | 32884 ft | 501 kts | 45° |
| 2026-04-26 02:06 | 63.52111 | -171.55090 | 32890 ft | 500 kts | 45° |
| 2026-04-26 02:06 | 63.57026 | -171.44119 | 32900 ft | 499 kts | 45° |
| 2026-04-26 02:07 | 63.61933 | -171.33112 | 32907 ft | 499 kts | 46° |
| 2026-04-26 02:07 | 63.66797 | -171.22142 | 32910 ft | 498 kts | 46° |
| 2026-04-26 02:08 | 63.71659 | -171.11122 | 32919 ft | 499 kts | 46° |
| 2026-04-26 02:08 | 63.76546 | -170.99986 | 32925 ft | 497 kts | 46° |
| 2026-04-26 02:09 | 63.81380 | -170.88913 | 32927 ft | 496 kts | 46° |
| 2026-04-26 02:09 | 63.86235 | -170.77736 | 32933 ft | 496 kts | 46° |
| 2026-04-26 02:10 | 63.91044 | -170.66605 | 32937 ft | 494 kts | 46° |
| 2026-04-26 02:10 | 63.95810 | -170.55518 | 32939 ft | 495 kts | 46° |
| 2026-04-26 02:11 | 64.00616 | -170.44278 | 32943 ft | 496 kts | 46° |
| 2026-04-26 02:11 | 64.05398 | -170.33038 | 32949 ft | 495 kts | 47° |
| 2026-04-26 02:12 | 64.10169 | -170.21764 | 32955 ft | 494 kts | 47° |
| 2026-04-26 02:12 | 64.14949 | -170.10405 | 32954 ft | 493 kts | 47° |
| 2026-04-26 02:13 | 64.19688 | -169.99086 | 32958 ft | 493 kts | 47° |
| 2026-04-26 02:13 | 64.24428 | -169.87707 | 32967 ft | 493 kts | 47° |
| 2026-04-26 02:14 | 64.29129 | -169.76360 | 32971 ft | 493 kts | 47° |
| 2026-04-26 02:14 | 64.33864 | -169.64870 | 32980 ft | 493 kts | 47° |
| 2026-04-26 02:15 | 64.38580 | -169.53368 | 32981 ft | 493 kts | 47° |
| 2026-04-26 02:15 | 64.43258 | -169.41891 | 32981 ft | 494 kts | 47° |
| 2026-04-26 02:16 | 64.47975 | -169.30260 | 32983 ft | 493 kts | 48° |
| 2026-04-26 02:16 | 64.52618 | -169.18751 | 32984 ft | 493 kts | 48° |
| 2026-04-26 02:17 | 64.57301 | -169.07080 | 32986 ft | 493 kts | 48° |
| 2026-04-26 02:17 | 64.61970 | -168.95378 | 32983 ft | 492 kts | 48° |
| 2026-04-26 02:18 | 64.66602 | -168.83708 | 32990 ft | 491 kts | 48° |
| 2026-04-26 02:18 | 64.71227 | -168.71994 | 32992 ft | 492 kts | 48° |
| 2026-04-26 02:19 | 64.75826 | -168.60281 | 32998 ft | 492 kts | 48° |
| 2026-04-26 02:19 | 64.80445 | -168.48451 | 32997 ft | 491 kts | 48° |
| 2026-04-26 02:20 | 64.85030 | -168.36646 | 33004 ft | 491 kts | 48° |
| 2026-04-26 02:20 | 64.89437 | -168.25240 | 33003 ft | 491 kts | 49° |
| 2026-04-26 02:21 | 64.94033 | -168.13448 | 33010 ft | 492 kts | 44° |
| 2026-04-26 02:21 | 64.99635 | -168.04164 | 33023 ft | 494 kts | 26° |
| 2026-04-26 02:22 | 65.06146 | -167.99468 | 33020 ft | 493 kts | 7° |
| 2026-04-26 02:22 | 65.12924 | -167.99554 | 33020 ft | 494 kts | 355° |
| 2026-04-26 02:23 | 65.19813 | -168.00507 | 33012 ft | 493 kts | 358° |
| 2026-04-26 02:23 | 65.26653 | -168.00763 | 33020 ft | 494 kts | 360° |
| 2026-04-26 02:24 | 65.33532 | -168.00623 | 33029 ft | 494 kts | 1° |
| 2026-04-26 02:24 | 65.40392 | -168.00267 | 33033 ft | 493 kts | 1° |
| 2026-04-26 02:25 | 65.47224 | -167.99800 | 33034 ft | 494 kts | 2° |
| 2026-04-26 02:25 | 65.54045 | -167.99271 | 33034 ft | 492 kts | 2° |
| 2026-04-26 02:26 | 65.60889 | -167.98704 | 33035 ft | 492 kts | 2° |
| 2026-04-26 02:26 | 65.67667 | -167.98125 | 33035 ft | 491 kts | 2° |
| 2026-04-26 02:27 | 65.74472 | -167.97531 | 33036 ft | 491 kts | 2° |
| 2026-04-26 02:27 | 65.81278 | -167.96930 | 33035 ft | 490 kts | 2° |
| 2026-04-26 02:28 | 65.88068 | -167.96323 | 33034 ft | 489 kts | 2° |
| 2026-04-26 02:28 | 65.94833 | -167.95715 | 33035 ft | 490 kts | 2° |
| 2026-04-26 02:29 | 66.01625 | -167.95100 | 33035 ft | 490 kts | 2° |
| 2026-04-26 02:29 | 66.08403 | -167.94482 | 33040 ft | 490 kts | 2° |
| 2026-04-26 02:30 | 66.15192 | -167.93860 | 33041 ft | 490 kts | 2° |
| 2026-04-26 02:30 | 66.21965 | -167.93236 | 33040 ft | 489 kts | 2° |
| 2026-04-26 02:31 | 66.28742 | -167.92609 | 33037 ft | 488 kts | 2° |
| 2026-04-26 02:31 | 66.35489 | -167.91980 | 33045 ft | 488 kts | 2° |
| 2026-04-26 02:32 | 66.42257 | -167.91347 | 33035 ft | 488 kts | 2° |
| 2026-04-26 02:32 | 66.48999 | -167.90712 | 33040 ft | 488 kts | 3° |
| 2026-04-26 02:33 | 66.55784 | -167.90070 | 33041 ft | 487 kts | 3° |
| 2026-04-26 02:33 | 66.62485 | -167.89432 | 33037 ft | 487 kts | 3° |
| 2026-04-26 02:34 | 66.69240 | -167.88786 | 33041 ft | 487 kts | 3° |
| 2026-04-26 02:34 | 66.75975 | -167.88138 | 33041 ft | 486 kts | 3° |
| 2026-04-26 02:35 | 66.82706 | -167.87488 | 33041 ft | 485 kts | 3° |
| 2026-04-26 02:35 | 66.89413 | -167.86835 | 33031 ft | 484 kts | 3° |
| 2026-04-26 02:36 | 66.96128 | -167.86177 | 33043 ft | 483 kts | 3° |
| 2026-04-26 02:36 | 67.02816 | -167.85519 | 33046 ft | 483 kts | 4° |
| 2026-04-26 02:37 | 67.09516 | -167.84856 | 33036 ft | 483 kts | 4° |
| 2026-04-26 02:37 | 67.16258 | -167.84186 | 33039 ft | 483 kts | 4° |
| 2026-04-26 02:38 | 67.22942 | -167.83517 | 33046 ft | 482 kts | 4° |
| 2026-04-26 02:38 | 67.29585 | -167.82849 | 33050 ft | 481 kts | 4° |
| 2026-04-26 02:39 | 67.36245 | -167.82176 | 33043 ft | 481 kts | 4° |
| 2026-04-26 02:39 | 67.42908 | -167.81499 | 33048 ft | 480 kts | 4° |
| 2026-04-26 02:40 | 67.49571 | -167.80817 | 33053 ft | 479 kts | 4° |
| 2026-04-26 02:40 | 67.56206 | -167.80135 | 33048 ft | 479 kts | 4° |
| 2026-04-26 02:41 | 67.62811 | -167.79452 | 33054 ft | 478 kts | 4° |
| 2026-04-26 02:41 | 67.69411 | -167.78766 | 33046 ft | 478 kts | 4° |
| 2026-04-26 02:42 | 67.76028 | -167.78073 | 33056 ft | 477 kts | 4° |
| 2026-04-26 02:42 | 67.82649 | -167.77377 | 33058 ft | 476 kts | 4° |
| 2026-04-26 02:43 | 67.92528 | -167.76331 | 33053 ft | 475 kts | 4° |
| 2026-04-26 02:43 | 67.99075 | -167.75633 | 33055 ft | 474 kts | 4° |
| 2026-04-26 02:44 | 68.05685 | -167.74924 | 33057 ft | 474 kts | 4° |
| 2026-04-26 02:44 | 68.12229 | -167.74217 | 33070 ft | 474 kts | 4° |
| 2026-04-26 02:45 | 68.18777 | -167.73506 | 33075 ft | 474 kts | 4° |
| 2026-04-26 02:45 | 68.25344 | -167.72789 | 33068 ft | 473 kts | 4° |
| 2026-04-26 02:46 | 68.31892 | -167.72070 | 33086 ft | 472 kts | 4° |
| 2026-04-26 02:46 | 68.38399 | -167.71353 | 33082 ft | 472 kts | 4° |
| 2026-04-26 02:47 | 68.44925 | -167.70628 | 33073 ft | 471 kts | 4° |
| 2026-04-26 02:47 | 68.51464 | -167.69899 | 33087 ft | 471 kts | 4° |
| 2026-04-26 02:48 | 68.57959 | -167.69170 | 33093 ft | 470 kts | 4° |
| 2026-04-26 02:48 | 68.64455 | -167.68436 | 33074 ft | 470 kts | 4° |
| 2026-04-26 02:49 | 68.70937 | -167.67699 | 33092 ft | 469 kts | 4° |
| 2026-04-26 02:49 | 68.77461 | -167.66952 | 33086 ft | 469 kts | 4° |
| 2026-04-26 02:50 | 68.83961 | -167.66205 | 33102 ft | 469 kts | 4° |
| 2026-04-26 02:50 | 68.90462 | -167.65454 | 33106 ft | 468 kts | 4° |
| 2026-04-26 02:51 | 68.96935 | -167.64700 | 33099 ft | 467 kts | 4° |
| 2026-04-26 02:51 | 69.03406 | -167.63943 | 33100 ft | 467 kts | 4° |
| 2026-04-26 02:52 | 69.09852 | -167.63185 | 33109 ft | 467 kts | 4° |
| 2026-04-26 02:52 | 69.16303 | -167.62421 | 33111 ft | 467 kts | 4° |
| 2026-04-26 02:53 | 69.22771 | -167.61650 | 33106 ft | 467 kts | 4° |
| 2026-04-26 02:53 | 69.29215 | -167.60878 | 33117 ft | 466 kts | 4° |
| 2026-04-26 02:54 | 69.35706 | -167.60097 | 33121 ft | 466 kts | 4° |
| 2026-04-26 02:54 | 69.42166 | -167.59312 | 33121 ft | 466 kts | 4° |
| 2026-04-26 02:55 | 69.48621 | -167.58527 | 33135 ft | 466 kts | 4° |
| 2026-04-26 02:55 | 69.55064 | -167.57735 | 33144 ft | 465 kts | 4° |
| 2026-04-26 02:56 | 69.61505 | -167.56940 | 33144 ft | 465 kts | 4° |
| 2026-04-26 02:56 | 69.67933 | -167.56142 | 33154 ft | 466 kts | 4° |
| 2026-04-26 02:57 | 69.74384 | -167.55336 | 33164 ft | 466 kts | 4° |
| 2026-04-26 02:57 | 69.80831 | -167.54524 | 33163 ft | 466 kts | 4° |
| 2026-04-26 02:58 | 69.87258 | -167.53711 | 33184 ft | 465 kts | 3° |
| 2026-04-26 02:58 | 69.93712 | -167.52890 | 33185 ft | 464 kts | 3° |
| 2026-04-26 02:59 | 70.00099 | -167.52072 | 33184 ft | 464 kts | 3° |
| 2026-04-26 02:59 | 70.06542 | -167.51241 | 33187 ft | 465 kts | 3° |
| 2026-04-26 03:00 | 70.12991 | -167.50406 | 33188 ft | 465 kts | 3° |
| 2026-04-26 03:00 | 70.19411 | -167.49568 | 33180 ft | 465 kts | 3° |
| 2026-04-26 03:01 | 70.25800 | -167.48729 | 33184 ft | 464 kts | 3° |
| 2026-04-26 03:01 | 70.32211 | -167.47882 | 33190 ft | 464 kts | 3° |
| 2026-04-26 03:02 | 70.38634 | -167.47028 | 33197 ft | 464 kts | 3° |
| 2026-04-26 03:02 | 70.45072 | -167.46166 | 33204 ft | 465 kts | 3° |
| 2026-04-26 03:03 | 70.51503 | -167.45300 | 33215 ft | 465 kts | 2° |
| 2026-04-26 03:03 | 70.57928 | -167.44431 | 33217 ft | 465 kts | 2° |
| 2026-04-26 03:04 | 70.64364 | -167.43553 | 33221 ft | 465 kts | 2° |
| 2026-04-26 03:04 | 70.70799 | -167.42671 | 33221 ft | 465 kts | 2° |
| 2026-04-26 03:05 | 70.77228 | -167.41783 | 33231 ft | 465 kts | 2° |
| 2026-04-26 03:05 | 70.83709 | -167.40881 | 33232 ft | 465 kts | 2° |
| 2026-04-26 03:06 | 70.90142 | -167.39981 | 33235 ft | 465 kts | 2° |
| 2026-04-26 03:06 | 70.96551 | -167.39079 | 33238 ft | 464 kts | 2° |
| 2026-04-26 03:07 | 71.02957 | -167.38171 | 33232 ft | 464 kts | 2° |
| 2026-04-26 03:07 | 71.09341 | -167.37260 | 33238 ft | 463 kts | 2° |
| 2026-04-26 03:08 | 71.15791 | -167.36334 | 33241 ft | 463 kts | 2° |
| 2026-04-26 03:08 | 71.22194 | -167.35408 | 33251 ft | 463 kts | 2° |
| 2026-04-26 03:09 | 71.28580 | -167.34479 | 33258 ft | 462 kts | 3° |
| 2026-04-26 03:09 | 71.35010 | -167.33537 | 33261 ft | 462 kts | 3° |
| 2026-04-26 03:10 | 71.41367 | -167.32600 | 33249 ft | 462 kts | 3° |
| 2026-04-26 03:10 | 71.47779 | -167.31648 | 33260 ft | 462 kts | 3° |
| 2026-04-26 03:11 | 71.54150 | -167.30696 | 33265 ft | 463 kts | 3° |
| 2026-04-26 03:11 | 71.60581 | -167.29729 | 33268 ft | 463 kts | 2° |
| 2026-04-26 03:12 | 71.66969 | -167.28761 | 33274 ft | 463 kts | 2° |
| 2026-04-26 03:12 | 71.73358 | -167.27788 | 33276 ft | 462 kts | 2° |
| 2026-04-26 03:13 | 71.79769 | -167.26804 | 33266 ft | 462 kts | 2° |
| 2026-04-26 03:13 | 71.86199 | -167.25810 | 33268 ft | 463 kts | 2° |
| 2026-04-26 03:14 | 71.92599 | -167.24814 | 33280 ft | 463 kts | 2° |
| 2026-04-26 03:14 | 71.99006 | -167.23810 | 33279 ft | 463 kts | 2° |
| 2026-04-26 03:15 | 72.05407 | -167.22800 | 33283 ft | 463 kts | 2° |
| 2026-04-26 03:15 | 72.11846 | -167.21777 | 33293 ft | 463 kts | 2° |
| 2026-04-26 03:16 | 72.18246 | -167.20754 | 33294 ft | 463 kts | 2° |
| 2026-04-26 03:16 | 72.24657 | -167.19720 | 33293 ft | 463 kts | 2° |
| 2026-04-26 03:17 | 72.31085 | -167.18678 | 33296 ft | 463 kts | 2° |
| 2026-04-26 03:17 | 72.37467 | -167.17636 | 33296 ft | 463 kts | 2° |
| 2026-04-26 03:18 | 72.43880 | -167.16582 | 33301 ft | 463 kts | 2° |
| 2026-04-26 03:18 | 72.50295 | -167.15518 | 33307 ft | 464 kts | 2° |
| 2026-04-26 03:19 | 72.56699 | -167.14450 | 33317 ft | 465 kts | 2° |
| 2026-04-26 03:19 | 72.63108 | -167.13373 | 33318 ft | 464 kts | 2° |
| 2026-04-26 03:20 | 72.69528 | -167.12286 | 33326 ft | 464 kts | 2° |
| 2026-04-26 03:20 | 72.75946 | -167.11191 | 33329 ft | 463 kts | 2° |
| 2026-04-26 03:21 | 72.82354 | -167.10091 | 33333 ft | 464 kts | 2° |
| 2026-04-26 03:21 | 72.88745 | -167.08986 | 33332 ft | 464 kts | 2° |
| 2026-04-26 03:22 | 72.95181 | -167.07866 | 33335 ft | 465 kts | 2° |
| 2026-04-26 03:22 | 73.01610 | -167.06737 | 33342 ft | 465 kts | 2° |
| 2026-04-26 03:23 | 73.08030 | -167.05602 | 33341 ft | 465 kts | 2° |
| 2026-04-26 03:23 | 73.14470 | -167.04454 | 33345 ft | 465 kts | 2° |
| 2026-04-26 03:24 | 73.20937 | -167.03294 | 33353 ft | 466 kts | 2° |
| 2026-04-26 03:24 | 73.27349 | -167.02135 | 33352 ft | 466 kts | 2° |
| 2026-04-26 03:25 | 73.33825 | -167.00957 | 33356 ft | 468 kts | 2° |
| 2026-04-26 03:25 | 73.40276 | -166.99771 | 33351 ft | 467 kts | 2° |
| 2026-04-26 03:26 | 73.46730 | -166.98578 | 33358 ft | 468 kts | 2° |
| 2026-04-26 03:26 | 73.53201 | -166.97372 | 33358 ft | 468 kts | 2° |
| 2026-04-26 03:27 | 73.59681 | -166.96156 | 33359 ft | 468 kts | 2° |
| 2026-04-26 03:27 | 73.66155 | -166.94931 | 33366 ft | 469 kts | 2° |
| 2026-04-26 03:28 | 73.72610 | -166.93700 | 33364 ft | 469 kts | 2° |
| 2026-04-26 03:28 | 73.79088 | -166.92454 | 33362 ft | 470 kts | 2° |
| 2026-04-26 03:29 | 73.85608 | -166.91193 | 33362 ft | 471 kts | 2° |
| 2026-04-26 03:29 | 73.92122 | -166.89920 | 33371 ft | 472 kts | 2° |
| 2026-04-26 03:30 | 73.98646 | -166.88637 | 33377 ft | 472 kts | 2° |
| 2026-04-26 03:30 | 74.05137 | -166.87349 | 33386 ft | 472 kts | 2° |
| 2026-04-26 03:31 | 74.11671 | -166.86043 | 33384 ft | 471 kts | 2° |
| 2026-04-26 03:31 | 74.18150 | -166.84738 | 33392 ft | 472 kts | 2° |
| 2026-04-26 03:32 | 74.24677 | -166.83411 | 33388 ft | 472 kts | 2° |
| 2026-04-26 03:32 | 74.31200 | -166.82075 | 33396 ft | 473 kts | 2° |
| 2026-04-26 03:33 | 74.37755 | -166.80722 | 33396 ft | 474 kts | 2° |
| 2026-04-26 03:33 | 74.44257 | -166.79369 | 33400 ft | 473 kts | 2° |
| 2026-04-26 03:34 | 74.50813 | -166.77994 | 33399 ft | 473 kts | 2° |
| 2026-04-26 03:34 | 74.57365 | -166.76607 | 33398 ft | 473 kts | 2° |
| 2026-04-26 03:35 | 74.63891 | -166.75215 | 33397 ft | 474 kts | 2° |
| 2026-04-26 03:35 | 74.70455 | -166.73802 | 33398 ft | 476 kts | 2° |
| 2026-04-26 03:36 | 74.77008 | -166.72382 | 33393 ft | 476 kts | 2° |
| 2026-04-26 03:36 | 74.83585 | -166.70943 | 33401 ft | 476 kts | 2° |
| 2026-04-26 03:37 | 74.90159 | -166.69492 | 33399 ft | 476 kts | 2° |
| 2026-04-26 03:37 | 74.96699 | -166.68036 | 33399 ft | 475 kts | 2° |
| 2026-04-26 03:38 | 75.03298 | -166.66554 | 33410 ft | 476 kts | 2° |
| 2026-04-26 03:38 | 75.09886 | -166.65063 | 33418 ft | 476 kts | 2° |
| 2026-04-26 03:39 | 75.16416 | -166.63573 | 33427 ft | 476 kts | 2° |
| 2026-04-26 03:39 | 75.23020 | -166.62051 | 33428 ft | 477 kts | 2° |
| 2026-04-26 03:40 | 75.29625 | -166.60516 | 33430 ft | 476 kts | 2° |
| 2026-04-26 03:40 | 75.36182 | -166.58978 | 33433 ft | 475 kts | 2° |
| 2026-04-26 03:41 | 75.42717 | -166.57433 | 33434 ft | 475 kts | 2° |
| 2026-04-26 03:41 | 75.49301 | -166.55862 | 33433 ft | 476 kts | 1° |
| 2026-04-26 03:42 | 75.55843 | -166.54288 | 33437 ft | 476 kts | 2° |
| 2026-04-26 03:42 | 75.62436 | -166.52687 | 33437 ft | 477 kts | 2° |
| 2026-04-26 03:43 | 75.69012 | -166.51076 | 33441 ft | 477 kts | 1° |
| 2026-04-26 03:43 | 75.75618 | -166.49442 | 33443 ft | 477 kts | 1° |
| 2026-04-26 03:44 | 75.82221 | -166.47794 | 33442 ft | 477 kts | 1° |
| 2026-04-26 03:44 | 75.88805 | -166.46137 | 33441 ft | 477 kts | 1° |
| 2026-04-26 03:45 | 75.95397 | -166.44461 | 33441 ft | 477 kts | 1° |
| 2026-04-26 03:45 | 76.01981 | -166.42772 | 33444 ft | 477 kts | 1° |
| 2026-04-26 03:46 | 76.08630 | -166.41049 | 33452 ft | 477 kts | 1° |
| 2026-04-26 03:47 | 76.18519 | -166.38460 | 33459 ft | 478 kts | 1° |
| 2026-04-26 03:47 | 76.25195 | -166.36694 | 33458 ft | 492 kts | 1° |
| 2026-04-26 03:48 | 76.32097 | -166.34853 | 33456 ft | 504 kts | 2° |
| 2026-04-26 03:48 | 76.39074 | -166.32965 | 33456 ft | 503 kts | 2° |
| 2026-04-26 03:49 | 76.46051 | -166.31059 | 33456 ft | 503 kts | 2° |
| 2026-04-26 03:49 | 76.52727 | -166.29217 | 33456 ft | 503 kts | 2° |
| 2026-04-26 03:50 | 76.59655 | -166.27287 | 33460 ft | 503 kts | 2° |
| 2026-04-26 03:50 | 76.66635 | -166.25323 | 33461 ft | 504 kts | 2° |
| 2026-04-26 03:51 | 76.73560 | -166.23355 | 33462 ft | 504 kts | 2° |
| 2026-04-26 03:51 | 76.80529 | -166.21353 | 33464 ft | 504 kts | 2° |
| 2026-04-26 03:52 | 76.87492 | -166.19331 | 33465 ft | 503 kts | 2° |
| 2026-04-26 03:52 | 76.94451 | -166.17291 | 33466 ft | 503 kts | 2° |
| 2026-04-26 03:53 | 77.01383 | -166.15237 | 33465 ft | 504 kts | 2° |
| 2026-04-26 03:53 | 77.08388 | -166.13139 | 33475 ft | 504 kts | 2° |
| 2026-04-26 03:54 | 77.15332 | -166.11038 | 33481 ft | 505 kts | 2° |
| 2026-04-26 03:54 | 77.22317 | -166.08900 | 33488 ft | 505 kts | 2° |
| 2026-04-26 03:55 | 77.29302 | -166.06741 | 33486 ft | 506 kts | 2° |
| 2026-04-26 03:55 | 77.36271 | -166.04561 | 33479 ft | 505 kts | 2° |
| 2026-04-26 03:56 | 77.43218 | -166.02365 | 33476 ft | 504 kts | 2° |
| 2026-04-26 03:56 | 77.50174 | -166.00143 | 33475 ft | 504 kts | 2° |
| 2026-04-26 03:57 | 77.57097 | -165.97908 | 33475 ft | 504 kts | 2° |
| 2026-04-26 03:57 | 77.64138 | -165.95607 | 33476 ft | 505 kts | 2° |
| 2026-04-26 03:58 | 77.71085 | -165.93314 | 33477 ft | 506 kts | 2° |
| 2026-04-26 03:58 | 77.78064 | -165.90982 | 33484 ft | 505 kts | 2° |
| 2026-04-26 03:59 | 77.85027 | -165.88629 | 33481 ft | 505 kts | 2° |
| 2026-04-26 03:59 | 77.92030 | -165.86237 | 33485 ft | 505 kts | 2° |
| 2026-04-26 04:00 | 77.99019 | -165.83821 | 33478 ft | 505 kts | 2° |
| 2026-04-26 04:00 | 78.05969 | -165.81392 | 33475 ft | 505 kts | 2° |
| 2026-04-26 04:01 | 78.12923 | -165.78934 | 33469 ft | 506 kts | 2° |
| 2026-04-26 04:01 | 78.19958 | -165.76416 | 33471 ft | 506 kts | 2° |
| 2026-04-26 04:02 | 78.26908 | -165.73900 | 33477 ft | 506 kts | 2° |
| 2026-04-26 04:02 | 78.33908 | -165.71336 | 33481 ft | 506 kts | 2° |
| 2026-04-26 04:03 | 78.40883 | -165.68751 | 33486 ft | 506 kts | 2° |
| 2026-04-26 04:03 | 78.47838 | -165.66142 | 33483 ft | 506 kts | 2° |
| 2026-04-26 04:04 | 78.54831 | -165.63487 | 33485 ft | 506 kts | 2° |
| 2026-04-26 04:04 | 78.61794 | -165.60812 | 33485 ft | 507 kts | 2° |
| 2026-04-26 04:05 | 78.68804 | -165.58086 | 33486 ft | 507 kts | 2° |
| 2026-04-26 04:05 | 78.75807 | -165.55330 | 33487 ft | 507 kts | 2° |
| 2026-04-26 04:06 | 78.82783 | -165.52550 | 33483 ft | 508 kts | 2° |
| 2026-04-26 04:06 | 78.89796 | -165.49719 | 33487 ft | 508 kts | 2° |
| 2026-04-26 04:07 | 78.96773 | -165.46869 | 33487 ft | 507 kts | 2° |
| 2026-04-26 04:07 | 79.03642 | -165.44028 | 33489 ft | 508 kts | 2° |
| 2026-04-26 04:08 | 79.10631 | -165.41100 | 33484 ft | 508 kts | 2° |
| 2026-04-26 04:08 | 79.17634 | -165.38127 | 33477 ft | 508 kts | 2° |
| 2026-04-26 04:09 | 79.24646 | -165.35112 | 33467 ft | 508 kts | 2° |
| 2026-04-26 04:09 | 79.31633 | -165.32071 | 33464 ft | 509 kts | 3° |
| 2026-04-26 04:10 | 79.38673 | -165.28966 | 33464 ft | 509 kts | 3° |
| 2026-04-26 04:10 | 79.45642 | -165.25851 | 33463 ft | 509 kts | 3° |
| 2026-04-26 04:11 | 79.52676 | -165.22667 | 33461 ft | 509 kts | 3° |
| 2026-04-26 04:11 | 79.59674 | -165.19455 | 33464 ft | 509 kts | 3° |
| 2026-04-26 04:12 | 79.66696 | -165.16190 | 33465 ft | 509 kts | 3° |
| 2026-04-26 04:12 | 79.73735 | -165.12872 | 33464 ft | 510 kts | 3° |
| 2026-04-26 04:13 | 79.80729 | -165.09531 | 33469 ft | 510 kts | 3° |
| 2026-04-26 04:13 | 79.87756 | -165.06126 | 33467 ft | 511 kts | 3° |
| 2026-04-26 04:14 | 79.94826 | -165.02653 | 33468 ft | 511 kts | 3° |
| 2026-04-26 04:14 | 80.01820 | -164.99266 | 33472 ft | 514 kts | 2° |
| 2026-04-26 04:14 | 80.05373 | -164.98184 | 33651 ft | 515 kts | 1° |
| 2026-04-26 04:15 | 80.08917 | -164.97183 | 34028 ft | 512 kts | 1° |
| 2026-04-26 04:15 | 80.12453 | -164.96166 | 34471 ft | 509 kts | 1° |
| 2026-04-26 04:15 | 80.15955 | -164.95137 | 34866 ft | 507 kts | 1° |
| 2026-04-26 04:15 | 80.19466 | -164.94089 | 35211 ft | 507 kts | 1° |
| 2026-04-26 04:16 | 80.22971 | -164.93025 | 35420 ft | 508 kts | 1° |
| 2026-04-26 04:16 | 80.29964 | -164.90863 | 35457 ft | 507 kts | 1° |
| 2026-04-26 04:17 | 80.36955 | -164.88657 | 35454 ft | 507 kts | 1° |
| 2026-04-26 04:17 | 80.44000 | -164.86392 | 35449 ft | 507 kts | 1° |
| 2026-04-26 04:18 | 80.51022 | -164.84099 | 35447 ft | 507 kts | 1° |
| 2026-04-26 04:18 | 80.58070 | -164.81761 | 35442 ft | 507 kts | 1° |
| 2026-04-26 04:19 | 80.65050 | -164.79408 | 35438 ft | 507 kts | 1° |
| 2026-04-26 04:19 | 80.72059 | -164.77011 | 35443 ft | 507 kts | 1° |
| 2026-04-26 04:20 | 80.78949 | -164.74618 | 35446 ft | 507 kts | 1° |
| 2026-04-26 04:20 | 80.85922 | -164.72162 | 35448 ft | 506 kts | 1° |
| 2026-04-26 04:21 | 80.92924 | -164.69656 | 35447 ft | 506 kts | 1° |
| 2026-04-26 04:21 | 80.99892 | -164.67123 | 35446 ft | 506 kts | 1° |
| 2026-04-26 04:22 | 81.06902 | -164.64537 | 35446 ft | 506 kts | 1° |
| 2026-04-26 04:22 | 81.13924 | -164.61905 | 35437 ft | 506 kts | 1° |
| 2026-04-26 04:23 | 81.20941 | -164.59233 | 35438 ft | 506 kts | 1° |
| 2026-04-26 04:23 | 81.27982 | -164.56508 | 35438 ft | 505 kts | 1° |
| 2026-04-26 04:24 | 81.34959 | -164.53764 | 35433 ft | 505 kts | 1° |
| 2026-04-26 04:24 | 81.41921 | -164.50984 | 35431 ft | 505 kts | 1° |
| 2026-04-26 04:25 | 81.48894 | -164.48154 | 35427 ft | 505 kts | 1° |
| 2026-04-26 04:25 | 81.55870 | -164.45274 | 35429 ft | 505 kts | 1° |
| 2026-04-26 04:26 | 81.62843 | -164.42349 | 35425 ft | 504 kts | 1° |
| 2026-04-26 04:26 | 81.69784 | -164.39388 | 35424 ft | 504 kts | 1° |
| 2026-04-26 04:27 | 81.76756 | -164.36363 | 35414 ft | 504 kts | 1° |
| 2026-04-26 04:27 | 81.83735 | -164.33285 | 35403 ft | 504 kts | 2° |
| 2026-04-26 04:28 | 81.90741 | -164.30144 | 35391 ft | 504 kts | 2° |
| 2026-04-26 04:28 | 81.97688 | -164.26973 | 35394 ft | 504 kts | 2° |
| 2026-04-26 04:29 | 82.04676 | -164.23727 | 35400 ft | 504 kts | 2° |
| 2026-04-26 04:29 | 82.11618 | -164.20448 | 35401 ft | 504 kts | 2° |
| 2026-04-26 04:30 | 82.18599 | -164.17090 | 35400 ft | 504 kts | 2° |
| 2026-04-26 04:30 | 82.25504 | -164.13710 | 35397 ft | 504 kts | 2° |
| 2026-04-26 04:31 | 82.32483 | -164.10233 | 35391 ft | 504 kts | 2° |
| 2026-04-26 04:31 | 82.39462 | -164.06691 | 35394 ft | 504 kts | 2° |
| 2026-04-26 04:32 | 82.46416 | -164.03098 | 35389 ft | 503 kts | 2° |
| 2026-04-26 04:32 | 82.53378 | -163.99434 | 35387 ft | 504 kts | 2° |
| 2026-04-26 04:33 | 82.60294 | -163.95726 | 35386 ft | 504 kts | 2° |
| 2026-04-26 04:33 | 82.67284 | -163.91907 | 35377 ft | 504 kts | 2° |
| 2026-04-26 04:34 | 82.74246 | -163.88031 | 35372 ft | 504 kts | 2° |
| 2026-04-26 04:34 | 82.81203 | -163.84082 | 35373 ft | 504 kts | 2° |
| 2026-04-26 04:35 | 82.88165 | -163.80054 | 35368 ft | 504 kts | 2° |
| 2026-04-26 04:35 | 82.95149 | -163.75931 | 35367 ft | 504 kts | 2° |
| 2026-04-26 04:36 | 83.02095 | -163.71751 | 35360 ft | 504 kts | 2° |
| 2026-04-26 04:36 | 83.09017 | -163.67502 | 35359 ft | 503 kts | 2° |
| 2026-04-26 04:37 | 83.15996 | -163.63132 | 35360 ft | 503 kts | 2° |
| 2026-04-26 04:37 | 83.22954 | -163.58684 | 35356 ft | 504 kts | 2° |
| 2026-04-26 04:38 | 83.29916 | -163.54141 | 35353 ft | 504 kts | 2° |
| 2026-04-26 04:38 | 83.36833 | -163.49535 | 35348 ft | 503 kts | 2° |
| 2026-04-26 04:39 | 83.43781 | -163.44809 | 35348 ft | 503 kts | 2° |
| 2026-04-26 04:39 | 83.50709 | -163.39998 | 35346 ft | 503 kts | 2° |
| 2026-04-26 04:40 | 83.57664 | -163.35063 | 35352 ft | 503 kts | 2° |
| 2026-04-26 04:40 | 83.64569 | -163.30057 | 35346 ft | 503 kts | 3° |
| 2026-04-26 04:41 | 83.71532 | -163.24896 | 35343 ft | 503 kts | 3° |
| 2026-04-26 04:41 | 83.78484 | -163.19629 | 35346 ft | 503 kts | 3° |
| 2026-04-26 04:42 | 83.85442 | -163.14237 | 35346 ft | 504 kts | 3° |
| 2026-04-26 04:42 | 83.92400 | -163.08720 | 35337 ft | 503 kts | 3° |
| 2026-04-26 04:43 | 83.99303 | -163.03122 | 35320 ft | 502 kts | 3° |
| 2026-04-26 04:43 | 84.06216 | -162.97388 | 35319 ft | 502 kts | 3° |
| 2026-04-26 04:44 | 84.13159 | -162.91492 | 35316 ft | 502 kts | 3° |
| 2026-04-26 04:44 | 84.20113 | -162.85446 | 35322 ft | 503 kts | 3° |
| 2026-04-26 04:45 | 84.27046 | -162.79269 | 35326 ft | 503 kts | 3° |
| 2026-04-26 04:45 | 84.33969 | -162.72951 | 35322 ft | 502 kts | 3° |
| 2026-04-26 04:46 | 84.40882 | -162.66487 | 35323 ft | 502 kts | 3° |
| 2026-04-26 04:46 | 84.47697 | -162.59955 | 35320 ft | 502 kts | 3° |
| 2026-04-26 04:47 | 84.54603 | -162.53171 | 35320 ft | 502 kts | 3° |
| 2026-04-26 04:47 | 84.61488 | -162.46231 | 35320 ft | 502 kts | 3° |
| 2026-04-26 04:48 | 84.71875 | -162.35420 | 35314 ft | 501 kts | 3° |
| 2026-04-26 04:48 | 84.78741 | -162.28038 | 35322 ft | 502 kts | 4° |
| 2026-04-26 04:49 | 84.85687 | -162.20366 | 35320 ft | 501 kts | 4° |
| 2026-04-26 04:49 | 84.92581 | -162.12546 | 35321 ft | 502 kts | 4° |
| 2026-04-26 04:50 | 84.99483 | -162.04500 | 35317 ft | 501 kts | 4° |
| 2026-04-26 04:50 | 85.06352 | -161.96268 | 35319 ft | 501 kts | 4° |
| 2026-04-26 04:51 | 85.13245 | -161.87772 | 35317 ft | 500 kts | 4° |
| 2026-04-26 04:51 | 85.20132 | -161.79040 | 35308 ft | 500 kts | 4° |
| 2026-04-26 04:52 | 85.27015 | -161.70061 | 35311 ft | 501 kts | 4° |
| 2026-04-26 04:52 | 85.33885 | -161.60829 | 35306 ft | 501 kts | 4° |
| 2026-04-26 04:53 | 85.40768 | -161.51305 | 35305 ft | 501 kts | 4° |
| 2026-04-26 04:53 | 85.47668 | -161.41464 | 35313 ft | 500 kts | 4° |
| 2026-04-26 04:54 | 85.54404 | -161.31561 | 35310 ft | 500 kts | 5° |
| 2026-04-26 04:54 | 85.61340 | -161.21046 | 35306 ft | 500 kts | 5° |
| 2026-04-26 04:55 | 85.68214 | -161.10288 | 35307 ft | 500 kts | 5° |
| 2026-04-26 04:55 | 85.75089 | -160.99178 | 35299 ft | 499 kts | 5° |
| 2026-04-26 04:56 | 85.81928 | -160.87762 | 35305 ft | 500 kts | 5° |
| 2026-04-26 04:56 | 85.88760 | -160.75978 | 35304 ft | 500 kts | 5° |
| 2026-04-26 04:57 | 85.95606 | -160.63766 | 35298 ft | 500 kts | 5° |
| 2026-04-26 04:57 | 86.02470 | -160.51099 | 35298 ft | 500 kts | 5° |
| 2026-04-26 04:58 | 86.09321 | -160.38007 | 35293 ft | 500 kts | 5° |
| 2026-04-26 04:58 | 86.16147 | -160.24495 | 35289 ft | 499 kts | 6° |
| 2026-04-26 04:59 | 86.22963 | -160.10510 | 35289 ft | 499 kts | 6° |
| 2026-04-26 04:59 | 86.29846 | -159.95862 | 35284 ft | 499 kts | 6° |
| 2026-04-26 05:00 | 86.36633 | -159.80870 | 35278 ft | 499 kts | 6° |
| 2026-04-26 05:00 | 86.43496 | -159.65124 | 35276 ft | 499 kts | 6° |
| 2026-04-26 05:01 | 86.50304 | -159.48889 | 35269 ft | 498 kts | 6° |
| 2026-04-26 05:01 | 86.57079 | -159.32086 | 35269 ft | 498 kts | 7° |
| 2026-04-26 05:02 | 86.63884 | -159.14520 | 35264 ft | 499 kts | 7° |
| 2026-04-26 05:02 | 86.70718 | -158.96140 | 35264 ft | 499 kts | 7° |
| 2026-04-26 05:03 | 86.77498 | -158.77125 | 35265 ft | 498 kts | 7° |
| 2026-04-26 05:03 | 86.84285 | -158.57265 | 35266 ft | 498 kts | 7° |
| 2026-04-26 05:04 | 86.91064 | -158.36543 | 35258 ft | 497 kts | 7° |
| 2026-04-26 05:04 | 86.97873 | -158.14783 | 35259 ft | 498 kts | 8° |
| 2026-04-26 05:05 | 87.04633 | -157.92169 | 35258 ft | 497 kts | 8° |
| 2026-04-26 05:05 | 87.11437 | -157.68330 | 35249 ft | 497 kts | 8° |
| 2026-04-26 05:06 | 87.18200 | -157.43471 | 35249 ft | 497 kts | 8° |
| 2026-04-26 05:06 | 87.24975 | -157.17323 | 35244 ft | 497 kts | 9° |
| 2026-04-26 05:07 | 87.31710 | -156.89996 | 35243 ft | 497 kts | 9° |
| 2026-04-26 05:07 | 87.38420 | -156.61346 | 35240 ft | 496 kts | 9° |
| 2026-04-26 05:08 | 87.45144 | -156.31094 | 35232 ft | 496 kts | 10° |
| 2026-04-26 05:08 | 87.51864 | -155.99184 | 35223 ft | 497 kts | 10° |
| 2026-04-26 05:09 | 87.58601 | -155.65369 | 35222 ft | 496 kts | 10° |
| 2026-04-26 05:09 | 87.65310 | -155.29713 | 35222 ft | 496 kts | 11° |
| 2026-04-26 05:10 | 87.71975 | -154.92172 | 35214 ft | 496 kts | 11° |
| 2026-04-26 05:10 | 87.78685 | -154.52028 | 35228 ft | 496 kts | 11° |
| 2026-04-26 05:11 | 87.85373 | -154.09445 | 35221 ft | 496 kts | 12° |
| 2026-04-26 05:11 | 87.92010 | -153.64403 | 35219 ft | 497 kts | 12° |
| 2026-04-26 05:12 | 87.98706 | -153.15842 | 35210 ft | 497 kts | 13° |
| 2026-04-26 05:12 | 88.05353 | -152.64209 | 35212 ft | 496 kts | 13° |
| 2026-04-26 05:13 | 88.12032 | -152.08525 | 35218 ft | 496 kts | 14° |
| 2026-04-26 05:13 | 88.18586 | -151.49725 | 35213 ft | 495 kts | 14° |
| 2026-04-26 05:14 | 88.25159 | -150.86134 | 35207 ft | 495 kts | 15° |
| 2026-04-26 05:14 | 88.31701 | -150.17665 | 35205 ft | 495 kts | 16° |
| 2026-04-26 05:15 | 88.38168 | -149.44249 | 35202 ft | 495 kts | 16° |
| 2026-04-26 05:15 | 88.44662 | -148.64018 | 35199 ft | 494 kts | 17° |
| 2026-04-26 05:16 | 88.51100 | -147.77118 | 35199 ft | 495 kts | 18° |
| 2026-04-26 05:16 | 88.57508 | -146.82288 | 35198 ft | 495 kts | 19° |
| 2026-04-26 05:17 | 88.63850 | -145.78960 | 35198 ft | 494 kts | 20° |
| 2026-04-26 05:17 | 88.70160 | -144.65262 | 35194 ft | 494 kts | 21° |
| 2026-04-26 05:18 | 88.76397 | -143.40370 | 35198 ft | 494 kts | 22° |
| 2026-04-26 05:18 | 88.82336 | -141.80632 | 35187 ft | 496 kts | 33° |
| 2026-04-26 05:19 | 88.87738 | -139.69559 | 35187 ft | 496 kts | 39° |
| 2026-04-26 05:19 | 88.92683 | -137.21751 | 35195 ft | 497 kts | 45° |
| 2026-04-26 05:20 | 88.97259 | -134.41422 | 35195 ft | 497 kts | 48° |
| 2026-04-26 05:20 | 89.01462 | -131.31993 | 35196 ft | 497 kts | 53° |
| 2026-04-26 05:21 | 89.05299 | -127.93442 | 35189 ft | 498 kts | 56° |
| 2026-04-26 05:21 | 89.08752 | -124.26294 | 35175 ft | 497 kts | 60° |
| 2026-04-26 05:22 | 89.11792 | -120.30737 | 35179 ft | 498 kts | 64° |
| 2026-04-26 05:22 | 89.14368 | -116.09882 | 35160 ft | 499 kts | 69° |
| 2026-04-26 05:23 | 89.16457 | -111.63763 | 35179 ft | 499 kts | 73° |
| 2026-04-26 05:23 | 89.18003 | -107.01227 | 35179 ft | 499 kts | 78° |
| 2026-04-26 05:24 | 89.18999 | -102.21771 | 35179 ft | 499 kts | 83° |
| 2026-04-26 05:24 | 89.19415 | -97.33043 | 35179 ft | 498 kts | 88° |
| 2026-04-26 05:25 | 89.19240 | -92.40865 | 35179 ft | 498 kts | 92° |
| 2026-04-26 05:25 | 89.18484 | -87.59142 | 35179 ft | 499 kts | 97° |
| 2026-04-26 05:26 | 89.17156 | -82.86894 | 35179 ft | 499 kts | 102° |
| 2026-04-26 05:26 | 89.15292 | -78.33878 | 35178 ft | 498 kts | 107° |
| 2026-04-26 05:27 | 89.12654 | -74.12160 | 35170 ft | 500 kts | 120° |
| 2026-04-26 05:27 | 89.08686 | -70.48101 | 35182 ft | 499 kts | 119° |
| 2026-04-26 05:28 | 89.05817 | -67.00047 | 35219 ft | 497 kts | 112° |
| 2026-04-26 05:28 | 89.03318 | -63.16383 | 35181 ft | 496 kts | 109° |
| 2026-04-26 05:29 | 89.01025 | -59.35678 | 35179 ft | 496 kts | 108° |
| 2026-04-26 05:29 | 88.98692 | -55.67536 | 35178 ft | 495 kts | 109° |
| 2026-04-26 05:30 | 88.96153 | -52.10996 | 35179 ft | 496 kts | 112° |
| 2026-04-26 05:30 | 88.93351 | -48.70468 | 35196 ft | 497 kts | 115° |
| 2026-04-26 05:31 | 88.90250 | -45.45757 | 35217 ft | 497 kts | 117° |
| 2026-04-26 05:31 | 88.86867 | -42.39784 | 35197 ft | 496 kts | 120° |
| 2026-04-26 05:32 | 88.83163 | -39.48818 | 35200 ft | 496 kts | 123° |
| 2026-04-26 05:32 | 88.79230 | -36.78699 | 35200 ft | 496 kts | 126° |
| 2026-04-26 05:33 | 88.75013 | -34.23638 | 35199 ft | 496 kts | 128° |
| 2026-04-26 05:33 | 88.70591 | -31.86673 | 35199 ft | 497 kts | 130° |
| 2026-04-26 05:34 | 88.65983 | -29.66408 | 35199 ft | 497 kts | 133° |
| 2026-04-26 05:34 | 88.61176 | -27.60471 | 35199 ft | 497 kts | 135° |
| 2026-04-26 05:35 | 88.56148 | -25.66444 | 35207 ft | 496 kts | 136° |
| 2026-04-26 05:35 | 88.51038 | -23.88110 | 35204 ft | 496 kts | 139° |
| 2026-04-26 05:36 | 88.45770 | -22.21005 | 35211 ft | 496 kts | 141° |
| 2026-04-26 05:36 | 88.40377 | -20.64982 | 35210 ft | 498 kts | 142° |
| 2026-04-26 05:37 | 88.34841 | -19.18453 | 35215 ft | 496 kts | 144° |
| 2026-04-26 05:37 | 88.29255 | -17.82659 | 35219 ft | 497 kts | 145° |
| 2026-04-26 05:38 | 88.23547 | -16.54862 | 35218 ft | 497 kts | 146° |
| 2026-04-26 05:38 | 88.17775 | -15.35465 | 35218 ft | 497 kts | 147° |
| 2026-04-26 05:39 | 88.11976 | -14.24326 | 35218 ft | 497 kts | 149° |
| 2026-04-26 05:39 | 88.06036 | -13.18604 | 35219 ft | 497 kts | 150° |
| 2026-04-26 05:40 | 88.00053 | -12.19467 | 35219 ft | 497 kts | 151° |
| 2026-04-26 05:40 | 87.94003 | -11.25978 | 35234 ft | 496 kts | 152° |
| 2026-04-26 05:41 | 87.87927 | -10.38205 | 35227 ft | 497 kts | 152° |
| 2026-04-26 05:41 | 87.81810 | -9.55418 | 35233 ft | 497 kts | 153° |
| 2026-04-26 05:42 | 87.75614 | -8.76707 | 35243 ft | 497 kts | 154° |
| 2026-04-26 05:42 | 87.69360 | -8.02035 | 35251 ft | 497 kts | 155° |
| 2026-04-26 05:43 | 87.63133 | -7.32013 | 35250 ft | 497 kts | 156° |
| 2026-04-26 05:43 | 87.56817 | -6.65014 | 35249 ft | 498 kts | 156° |
| 2026-04-26 05:44 | 87.50499 | -6.01701 | 35249 ft | 496 kts | 157° |
| 2026-04-26 05:44 | 87.44153 | -5.41528 | 35251 ft | 496 kts | 157° |
| 2026-04-26 05:45 | 87.37788 | -4.84334 | 35256 ft | 497 kts | 158° |
| 2026-04-26 05:45 | 87.31414 | -4.29998 | 35265 ft | 498 kts | 159° |
| 2026-04-26 05:46 | 87.24937 | -3.77551 | 35270 ft | 497 kts | 159° |
| 2026-04-26 05:46 | 87.18481 | -3.27838 | 35272 ft | 498 kts | 160° |
| 2026-04-26 05:47 | 87.12054 | -2.80707 | 35274 ft | 497 kts | 160° |
| 2026-04-26 05:47 | 87.05572 | -2.35390 | 35277 ft | 496 kts | 160° |
| 2026-04-26 05:48 | 86.99051 | -1.91879 | 35279 ft | 496 kts | 161° |
| 2026-04-26 05:48 | 86.92562 | -1.50524 | 35282 ft | 496 kts | 161° |
| 2026-04-26 05:49 | 86.82713 | -0.91160 | 35291 ft | 497 kts | 162° |
| 2026-04-26 05:50 | 86.76186 | -0.53909 | 35290 ft | 498 kts | 162° |
| 2026-04-26 05:50 | 86.69582 | -0.17784 | 35294 ft | 498 kts | 163° |
| 2026-04-26 05:51 | 86.63010 | 0.16693 | 35299 ft | 498 kts | 163° |
| 2026-04-26 05:51 | 86.56383 | 0.50072 | 35302 ft | 497 kts | 162° |
| 2026-04-26 05:52 | 86.49803 | 0.81905 | 35303 ft | 497 kts | 163° |
| 2026-04-26 05:52 | 86.43150 | 1.12850 | 35305 ft | 497 kts | 164° |
| 2026-04-26 05:53 | 86.36514 | 1.42548 | 35304 ft | 497 kts | 164° |
| 2026-04-26 05:53 | 86.29867 | 1.71190 | 35310 ft | 497 kts | 165° |
| 2026-04-26 05:54 | 86.23194 | 1.98889 | 35312 ft | 497 kts | 165° |
| 2026-04-26 05:54 | 86.16490 | 2.25711 | 35313 ft | 497 kts | 165° |
| 2026-04-26 05:55 | 86.09854 | 2.51326 | 35316 ft | 497 kts | 165° |
| 2026-04-26 05:55 | 86.03183 | 2.76188 | 35318 ft | 497 kts | 166° |
| 2026-04-26 05:56 | 85.96514 | 3.00196 | 35326 ft | 497 kts | 166° |
| 2026-04-26 05:56 | 85.89813 | 3.23508 | 35328 ft | 497 kts | 166° |
| 2026-04-26 05:57 | 85.83124 | 3.46011 | 35333 ft | 497 kts | 166° |
| 2026-04-26 05:57 | 85.76438 | 3.67772 | 35333 ft | 496 kts | 167° |
| 2026-04-26 05:58 | 85.69721 | 3.88935 | 35330 ft | 497 kts | 167° |
| 2026-04-26 05:58 | 85.62989 | 4.09479 | 35332 ft | 496 kts | 167° |
| 2026-04-26 05:59 | 85.56247 | 4.29415 | 35332 ft | 495 kts | 167° |
| 2026-04-26 05:59 | 85.49545 | 4.48626 | 35334 ft | 496 kts | 167° |
| 2026-04-26 06:00 | 85.42776 | 4.67444 | 35335 ft | 496 kts | 168° |
| 2026-04-26 06:00 | 85.36072 | 4.85532 | 35336 ft | 497 kts | 168° |
| 2026-04-26 06:01 | 85.29341 | 5.03158 | 35335 ft | 497 kts | 168° |
| 2026-04-26 06:01 | 85.22652 | 5.20175 | 35336 ft | 496 kts | 168° |
| 2026-04-26 06:02 | 85.15856 | 5.36974 | 35340 ft | 495 kts | 168° |
| 2026-04-26 06:02 | 85.09129 | 5.53135 | 35340 ft | 495 kts | 168° |
| 2026-04-26 06:03 | 85.02407 | 5.68842 | 35342 ft | 494 kts | 169° |
| 2026-04-26 06:03 | 84.95645 | 5.84212 | 35346 ft | 494 kts | 169° |
| 2026-04-26 06:04 | 84.88947 | 5.99028 | 35346 ft | 494 kts | 169° |
| 2026-04-26 06:04 | 84.82187 | 6.13586 | 35351 ft | 494 kts | 169° |
| 2026-04-26 06:05 | 84.75433 | 6.27751 | 35353 ft | 494 kts | 169° |
| 2026-04-26 06:05 | 84.68707 | 6.41493 | 35353 ft | 494 kts | 169° |
| 2026-04-26 06:06 | 84.61910 | 6.55027 | 35352 ft | 494 kts | 169° |
| 2026-04-26 06:06 | 84.55134 | 6.68178 | 35355 ft | 494 kts | 169° |
| 2026-04-26 06:07 | 84.48374 | 6.80971 | 35354 ft | 495 kts | 169° |
| 2026-04-26 06:07 | 84.41602 | 6.93474 | 35348 ft | 495 kts | 169° |
| 2026-04-26 06:08 | 84.34820 | 7.05691 | 35344 ft | 495 kts | 169° |
| 2026-04-26 06:08 | 84.28055 | 7.17584 | 35343 ft | 495 kts | 169° |
| 2026-04-26 06:09 | 84.21330 | 7.29129 | 35342 ft | 495 kts | 169° |
| 2026-04-26 06:09 | 84.14571 | 7.40462 | 35342 ft | 495 kts | 169° |
| 2026-04-26 06:10 | 84.07764 | 7.51612 | 35342 ft | 495 kts | 169° |
| 2026-04-26 06:10 | 84.01035 | 7.62382 | 35342 ft | 495 kts | 169° |
| 2026-04-26 06:11 | 83.94223 | 7.73039 | 35342 ft | 496 kts | 170° |
| 2026-04-26 06:11 | 83.87473 | 7.83362 | 35344 ft | 495 kts | 170° |
| 2026-04-26 06:12 | 83.80752 | 7.93416 | 35344 ft | 496 kts | 170° |
| 2026-04-26 06:12 | 83.73923 | 8.03406 | 35344 ft | 496 kts | 170° |
| 2026-04-26 06:13 | 83.67185 | 8.13052 | 35342 ft | 496 kts | 170° |
| 2026-04-26 06:13 | 83.60393 | 8.22568 | 35338 ft | 496 kts | 170° |
| 2026-04-26 06:14 | 83.53569 | 8.31926 | 35335 ft | 496 kts | 170° |
| 2026-04-26 06:14 | 83.46801 | 8.41012 | 35333 ft | 496 kts | 170° |
| 2026-04-26 06:15 | 83.40008 | 8.49944 | 35331 ft | 496 kts | 170° |
| 2026-04-26 06:15 | 83.33209 | 8.58699 | 35329 ft | 496 kts | 170° |
| 2026-04-26 06:16 | 83.26365 | 8.67333 | 35328 ft | 496 kts | 171° |
| 2026-04-26 06:16 | 83.19602 | 8.75694 | 35325 ft | 497 kts | 171° |
| 2026-04-26 06:17 | 83.12802 | 8.83933 | 35325 ft | 496 kts | 171° |
| 2026-04-26 06:17 | 83.05990 | 8.92024 | 35321 ft | 497 kts | 171° |
| 2026-04-26 06:18 | 82.99163 | 8.99974 | 35321 ft | 496 kts | 171° |
| 2026-04-26 06:18 | 82.92368 | 9.07734 | 35321 ft | 497 kts | 171° |
| 2026-04-26 06:19 | 82.85568 | 9.15351 | 35318 ft | 496 kts | 171° |
| 2026-04-26 06:19 | 82.78774 | 9.22817 | 35313 ft | 497 kts | 171° |
| 2026-04-26 06:20 | 82.71941 | 9.30185 | 35310 ft | 497 kts | 171° |
| 2026-04-26 06:20 | 82.65150 | 9.37372 | 35307 ft | 497 kts | 171° |
| 2026-04-26 06:21 | 82.58295 | 9.44492 | 35300 ft | 497 kts | 171° |
| 2026-04-26 06:21 | 82.51479 | 9.51442 | 35297 ft | 497 kts | 171° |
| 2026-04-26 06:22 | 82.44660 | 9.58268 | 35294 ft | 497 kts | 171° |
| 2026-04-26 06:22 | 82.37852 | 9.64964 | 35293 ft | 498 kts | 171° |
| 2026-04-26 06:23 | 82.30956 | 9.66661 | 35279 ft | 499 kts | 184° |
| 2026-04-26 06:23 | 82.24086 | 9.68567 | 35291 ft | 498 kts | 170° |
| 2026-04-26 06:24 | 82.17310 | 9.77536 | 35288 ft | 497 kts | 169° |
| 2026-04-26 06:24 | 82.10523 | 9.86508 | 35285 ft | 497 kts | 169° |
| 2026-04-26 06:25 | 82.03736 | 9.95288 | 35283 ft | 497 kts | 169° |
| 2026-04-26 06:25 | 81.97052 | 10.07232 | 35282 ft | 498 kts | 161° |
| 2026-04-26 06:26 | 81.90498 | 10.23133 | 35271 ft | 498 kts | 160° |
| 2026-04-26 06:26 | 81.83946 | 10.38801 | 35269 ft | 498 kts | 160° |
| 2026-04-26 06:27 | 81.77401 | 10.54168 | 35262 ft | 498 kts | 160° |
| 2026-04-26 06:27 | 81.70871 | 10.69236 | 35256 ft | 498 kts | 161° |
| 2026-04-26 06:28 | 81.64302 | 10.84140 | 35247 ft | 499 kts | 161° |
| 2026-04-26 06:28 | 81.57779 | 10.98698 | 35245 ft | 499 kts | 161° |
| 2026-04-26 06:29 | 81.51168 | 11.13209 | 35240 ft | 499 kts | 161° |
| 2026-04-26 06:29 | 81.44595 | 11.27407 | 35238 ft | 499 kts | 161° |
| 2026-04-26 06:30 | 81.38008 | 11.41404 | 35237 ft | 499 kts | 161° |
| 2026-04-26 06:30 | 81.31415 | 11.55195 | 35233 ft | 499 kts | 161° |
| 2026-04-26 06:31 | 81.24844 | 11.68723 | 35233 ft | 500 kts | 162° |
| 2026-04-26 06:31 | 81.18246 | 11.82095 | 35227 ft | 500 kts | 162° |
| 2026-04-26 06:32 | 81.11594 | 11.95370 | 35226 ft | 500 kts | 162° |
| 2026-04-26 06:32 | 81.04974 | 12.08374 | 35227 ft | 500 kts | 162° |
| 2026-04-26 06:33 | 80.98350 | 12.21190 | 35218 ft | 500 kts | 162° |
| 2026-04-26 06:33 | 80.91734 | 12.33799 | 35211 ft | 500 kts | 162° |
| 2026-04-26 06:34 | 80.85054 | 12.46335 | 35210 ft | 500 kts | 162° |
| 2026-04-26 06:34 | 80.78616 | 12.58240 | 35203 ft | 501 kts | 162° |
| 2026-04-26 06:35 | 80.71951 | 12.70384 | 35201 ft | 501 kts | 163° |
| 2026-04-26 06:35 | 80.65300 | 12.82326 | 35191 ft | 501 kts | 163° |
| 2026-04-26 06:36 | 80.58622 | 12.94140 | 35187 ft | 501 kts | 163° |
| 2026-04-26 06:36 | 80.51929 | 13.05810 | 35181 ft | 500 kts | 163° |
| 2026-04-26 06:37 | 80.45255 | 13.17277 | 35174 ft | 500 kts | 163° |
| 2026-04-26 06:37 | 80.38547 | 13.28635 | 35171 ft | 500 kts | 163° |
| 2026-04-26 06:38 | 80.31863 | 13.39794 | 35171 ft | 501 kts | 163° |
| 2026-04-26 06:38 | 80.25176 | 13.50801 | 35169 ft | 502 kts | 163° |
| 2026-04-26 06:39 | 80.18489 | 13.61653 | 35162 ft | 502 kts | 163° |
| 2026-04-26 06:39 | 80.11702 | 13.72512 | 35164 ft | 501 kts | 164° |
| 2026-04-26 06:40 | 80.04975 | 13.83126 | 35163 ft | 501 kts | 164° |
| 2026-04-26 06:40 | 79.98294 | 13.93524 | 35151 ft | 501 kts | 164° |
| 2026-04-26 06:41 | 79.91539 | 14.03892 | 35154 ft | 503 kts | 164° |
| 2026-04-26 06:41 | 79.84776 | 14.14130 | 35150 ft | 504 kts | 164° |
| 2026-04-26 06:42 | 79.78043 | 14.24185 | 35145 ft | 504 kts | 164° |
| 2026-04-26 06:42 | 79.71273 | 14.34161 | 35110 ft | 504 kts | 164° |
| 2026-04-26 06:43 | 79.64516 | 14.43983 | 35036 ft | 503 kts | 164° |
| 2026-04-26 06:43 | 79.57805 | 14.53610 | 34948 ft | 503 kts | 164° |
| 2026-04-26 06:44 | 79.51031 | 14.63200 | 34951 ft | 504 kts | 164° |
| 2026-04-26 06:44 | 79.44134 | 14.72835 | 34982 ft | 505 kts | 165° |
| 2026-04-26 06:45 | 79.37271 | 14.82295 | 34948 ft | 505 kts | 165° |
| 2026-04-26 06:45 | 79.30489 | 14.91521 | 34870 ft | 505 kts | 165° |
| 2026-04-26 06:46 | 79.23715 | 15.00619 | 34827 ft | 504 kts | 165° |
| 2026-04-26 06:46 | 79.16902 | 15.09653 | 34844 ft | 504 kts | 165° |
| 2026-04-26 06:47 | 79.10135 | 15.18513 | 34861 ft | 505 kts | 165° |
| 2026-04-26 06:47 | 79.03328 | 15.27312 | 34870 ft | 507 kts | 165° |
| 2026-04-26 06:48 | 78.96531 | 15.35987 | 34918 ft | 506 kts | 165° |
| 2026-04-26 06:48 | 78.89724 | 15.44567 | 34988 ft | 505 kts | 165° |
| 2026-04-26 06:49 | 78.82793 | 15.53194 | 35036 ft | 506 kts | 165° |
| 2026-04-26 06:49 | 78.75771 | 15.61824 | 35036 ft | 506 kts | 165° |
| 2026-04-26 06:50 | 78.68942 | 15.70113 | 35014 ft | 507 kts | 166° |
| 2026-04-26 06:50 | 78.61832 | 15.78636 | 34987 ft | 507 kts | 166° |
| 2026-04-26 06:51 | 78.54678 | 15.87103 | 35012 ft | 508 kts | 166° |
| 2026-04-26 06:51 | 78.44254 | 15.99251 | 35058 ft | 508 kts | 166° |
| 2026-04-26 06:52 | 78.37434 | 16.07080 | 35036 ft | 508 kts | 166° |
| 2026-04-26 06:52 | 78.30544 | 16.14894 | 35020 ft | 508 kts | 166° |
| 2026-04-26 06:53 | 78.23665 | 16.22603 | 35007 ft | 509 kts | 166° |
| 2026-04-26 06:53 | 78.16750 | 16.30261 | 35000 ft | 509 kts | 166° |
| 2026-04-26 06:54 | 78.09849 | 16.37815 | 34983 ft | 509 kts | 166° |
| 2026-04-26 06:54 | 78.02975 | 16.45253 | 34964 ft | 509 kts | 166° |
| 2026-04-26 06:55 | 77.96041 | 16.52667 | 34941 ft | 509 kts | 166° |
| 2026-04-26 06:55 | 77.89190 | 16.59908 | 34942 ft | 509 kts | 166° |
| 2026-04-26 06:56 | 77.82140 | 16.67273 | 34931 ft | 510 kts | 167° |
| 2026-04-26 06:56 | 77.75169 | 16.74474 | 34910 ft | 510 kts | 167° |
| 2026-04-26 06:57 | 77.68295 | 16.81492 | 34911 ft | 510 kts | 167° |
| 2026-04-26 06:57 | 77.61377 | 16.88477 | 34934 ft | 510 kts | 167° |
| 2026-04-26 06:58 | 77.54427 | 16.95415 | 34931 ft | 510 kts | 167° |
| 2026-04-26 06:58 | 77.47532 | 17.02221 | 34915 ft | 510 kts | 167° |
| 2026-04-26 06:59 | 77.40631 | 17.08959 | 34928 ft | 510 kts | 167° |
| 2026-04-26 06:59 | 77.33738 | 17.15614 | 34950 ft | 510 kts | 167° |
| 2026-04-26 07:00 | 77.26804 | 17.22237 | 34976 ft | 511 kts | 167° |
| 2026-04-26 07:00 | 77.19875 | 17.28783 | 35006 ft | 511 kts | 167° |
| 2026-04-26 07:01 | 77.12926 | 17.35276 | 35021 ft | 512 kts | 167° |
| 2026-04-26 07:01 | 77.06015 | 17.41664 | 35031 ft | 512 kts | 167° |
| 2026-04-26 07:02 | 76.99103 | 17.47986 | 35033 ft | 511 kts | 167° |
| 2026-04-26 07:02 | 76.92161 | 17.54267 | 35033 ft | 511 kts | 167° |
| 2026-04-26 07:03 | 76.85236 | 17.60467 | 35024 ft | 512 kts | 167° |
| 2026-04-26 07:03 | 76.78256 | 17.66649 | 35024 ft | 512 kts | 168° |
| 2026-04-26 07:04 | 76.71245 | 17.72795 | 35020 ft | 512 kts | 168° |
| 2026-04-26 07:04 | 76.64297 | 17.78820 | 35019 ft | 512 kts | 168° |
| 2026-04-26 07:05 | 76.57300 | 17.84827 | 35018 ft | 513 kts | 168° |
| 2026-04-26 07:05 | 76.50359 | 17.90721 | 35014 ft | 513 kts | 168° |
| 2026-04-26 07:06 | 76.43413 | 17.96561 | 35012 ft | 512 kts | 168° |
| 2026-04-26 07:06 | 76.36459 | 18.02347 | 35006 ft | 513 kts | 168° |
| 2026-04-26 07:07 | 76.29437 | 18.08131 | 35002 ft | 514 kts | 168° |
| 2026-04-26 07:07 | 76.22431 | 18.13842 | 34999 ft | 514 kts | 168° |
| 2026-04-26 07:08 | 76.15481 | 18.19451 | 34997 ft | 513 kts | 168° |
| 2026-04-26 07:08 | 76.08501 | 18.25027 | 34991 ft | 514 kts | 168° |
| 2026-04-26 07:09 | 76.01527 | 18.30544 | 34987 ft | 514 kts | 168° |
| 2026-04-26 07:09 | 75.94556 | 18.36004 | 34985 ft | 514 kts | 168° |
| 2026-04-26 07:11 | 75.77035 | 18.49490 | 34977 ft | 515 kts | 168° |
| 2026-04-26 07:11 | 75.70023 | 18.54796 | 34973 ft | 515 kts | 168° |
| 2026-04-26 07:12 | 75.62995 | 18.60061 | 34970 ft | 515 kts | 168° |
| 2026-04-26 07:12 | 75.55993 | 18.65256 | 34968 ft | 516 kts | 169° |
| 2026-04-26 07:13 | 75.48976 | 18.70413 | 34964 ft | 516 kts | 169° |
| 2026-04-26 07:13 | 75.41966 | 18.75515 | 34956 ft | 516 kts | 169° |
| 2026-04-26 07:14 | 75.34914 | 18.80598 | 34952 ft | 516 kts | 169° |
| 2026-04-26 07:14 | 75.27926 | 18.85588 | 34951 ft | 516 kts | 169° |
| 2026-04-26 07:15 | 75.20867 | 18.90580 | 34952 ft | 516 kts | 169° |
| 2026-04-26 07:15 | 75.13838 | 18.95505 | 34954 ft | 517 kts | 169° |
| 2026-04-26 07:16 | 75.06806 | 19.00386 | 34951 ft | 518 kts | 169° |
| 2026-04-26 07:16 | 74.99709 | 19.05266 | 34951 ft | 518 kts | 169° |
| 2026-04-26 07:17 | 74.92656 | 19.10070 | 34950 ft | 518 kts | 169° |
| 2026-04-26 07:17 | 74.85613 | 19.14822 | 34943 ft | 517 kts | 169° |
| 2026-04-26 07:18 | 74.78555 | 19.19541 | 34943 ft | 518 kts | 169° |
| 2026-04-26 07:18 | 74.71508 | 19.24210 | 34939 ft | 519 kts | 169° |
| 2026-04-26 07:19 | 74.64440 | 19.28851 | 34933 ft | 519 kts | 169° |
| 2026-04-26 07:19 | 74.57391 | 19.33436 | 34934 ft | 519 kts | 169° |
| 2026-04-26 07:20 | 74.50307 | 19.38003 | 34928 ft | 519 kts | 169° |
| 2026-04-26 07:20 | 74.43233 | 19.42523 | 34925 ft | 519 kts | 169° |
| 2026-04-26 07:21 | 74.36146 | 19.47010 | 34919 ft | 520 kts | 169° |
| 2026-04-26 07:21 | 74.29050 | 19.51462 | 34920 ft | 520 kts | 169° |
| 2026-04-26 07:22 | 74.21993 | 19.55852 | 34917 ft | 520 kts | 169° |
| 2026-04-26 07:22 | 74.14871 | 19.60242 | 34911 ft | 520 kts | 169° |
| 2026-04-26 07:23 | 74.07822 | 19.64550 | 34909 ft | 520 kts | 169° |
| 2026-04-26 07:23 | 74.00677 | 19.68877 | 34905 ft | 521 kts | 171° |
| 2026-04-26 07:24 | 73.93574 | 19.73141 | 34911 ft | 521 kts | 171° |
| 2026-04-26 07:24 | 73.86484 | 19.77362 | 34909 ft | 522 kts | 171° |
| 2026-04-26 07:25 | 73.79367 | 19.81561 | 34901 ft | 521 kts | 171° |
| 2026-04-26 07:25 | 73.72221 | 19.85740 | 34900 ft | 521 kts | 171° |
| 2026-04-26 07:26 | 73.65155 | 19.89838 | 34900 ft | 521 kts | 171° |
| 2026-04-26 07:26 | 73.57999 | 19.93952 | 34897 ft | 521 kts | 171° |
| 2026-04-26 07:27 | 73.50900 | 19.97999 | 34889 ft | 522 kts | 171° |
| 2026-04-26 07:27 | 73.43720 | 20.02057 | 34885 ft | 522 kts | 171° |
| 2026-04-26 07:28 | 73.36620 | 20.06036 | 34884 ft | 522 kts | 171° |
| 2026-04-26 07:28 | 73.29439 | 20.10027 | 34878 ft | 523 kts | 171° |
| 2026-04-26 07:29 | 73.22319 | 20.13950 | 34874 ft | 523 kts | 171° |
| 2026-04-26 07:29 | 73.15135 | 20.17876 | 34872 ft | 523 kts | 171° |
| 2026-04-26 07:30 | 73.08025 | 20.21729 | 34866 ft | 522 kts | 171° |
| 2026-04-26 07:30 | 73.00837 | 20.25592 | 34866 ft | 522 kts | 171° |
| 2026-04-26 07:31 | 72.93713 | 20.29389 | 34862 ft | 523 kts | 171° |
| 2026-04-26 07:31 | 72.86545 | 20.33178 | 34858 ft | 524 kts | 171° |
| 2026-04-26 07:32 | 72.79336 | 20.36958 | 34859 ft | 524 kts | 171° |
| 2026-04-26 07:32 | 72.72172 | 20.40684 | 34863 ft | 525 kts | 171° |
| 2026-04-26 07:33 | 72.65030 | 20.44368 | 34862 ft | 524 kts | 171° |
| 2026-04-26 07:33 | 72.57847 | 20.48043 | 34860 ft | 524 kts | 171° |
| 2026-04-26 07:34 | 72.50627 | 20.51707 | 34854 ft | 524 kts | 171° |
| 2026-04-26 07:34 | 72.43421 | 20.55334 | 34850 ft | 525 kts | 171° |
| 2026-04-26 07:35 | 72.36263 | 20.58909 | 34847 ft | 526 kts | 171° |
| 2026-04-26 07:35 | 72.29054 | 20.62481 | 34844 ft | 525 kts | 171° |
| 2026-04-26 07:36 | 72.21874 | 20.66009 | 34841 ft | 525 kts | 172° |
| 2026-04-26 07:36 | 72.14656 | 20.69530 | 34841 ft | 525 kts | 172° |
| 2026-04-26 07:37 | 72.07487 | 20.72998 | 34839 ft | 526 kts | 172° |
| 2026-04-26 07:37 | 72.00223 | 20.76485 | 34833 ft | 526 kts | 172° |
| 2026-04-26 07:38 | 71.93028 | 20.79911 | 34836 ft | 527 kts | 172° |
| 2026-04-26 07:38 | 71.85796 | 20.83329 | 34830 ft | 527 kts | 172° |
| 2026-04-26 07:39 | 71.78538 | 20.86733 | 34828 ft | 527 kts | 172° |
| 2026-04-26 07:39 | 71.71334 | 20.90084 | 34828 ft | 526 kts | 172° |
| 2026-04-26 07:40 | 71.64050 | 20.93448 | 34828 ft | 528 kts | 172° |
| 2026-04-26 07:40 | 71.56812 | 20.96764 | 34827 ft | 528 kts | 172° |
| 2026-04-26 07:41 | 71.49560 | 21.00061 | 34827 ft | 528 kts | 172° |
| 2026-04-26 07:41 | 71.42318 | 21.03328 | 34826 ft | 528 kts | 172° |
| 2026-04-26 07:42 | 71.35090 | 21.06564 | 34826 ft | 528 kts | 172° |
| 2026-04-26 07:42 | 71.27802 | 21.09803 | 34827 ft | 529 kts | 172° |
| 2026-04-26 07:43 | 71.20577 | 21.12990 | 34828 ft | 529 kts | 172° |
| 2026-04-26 07:43 | 71.13322 | 21.16166 | 34829 ft | 530 kts | 172° |
| 2026-04-26 07:44 | 71.06023 | 21.19337 | 34829 ft | 529 kts | 172° |
| 2026-04-26 07:44 | 70.98751 | 21.22473 | 34830 ft | 529 kts | 172° |
| 2026-04-26 07:45 | 70.91499 | 21.25749 | 34831 ft | 529 kts | 168° |
| 2026-04-26 07:45 | 70.84251 | 21.30638 | 34825 ft | 530 kts | 166° |
| 2026-04-26 07:46 | 70.77057 | 21.35578 | 34828 ft | 531 kts | 166° |
| 2026-04-26 07:46 | 70.69894 | 21.40460 | 34826 ft | 530 kts | 166° |
| 2026-04-26 07:47 | 70.62746 | 21.45292 | 34831 ft | 531 kts | 166° |
| 2026-04-26 07:47 | 70.55543 | 21.50127 | 34837 ft | 531 kts | 166° |
| 2026-04-26 07:48 | 70.48377 | 21.54901 | 34834 ft | 531 kts | 166° |
| 2026-04-26 07:48 | 70.41179 | 21.59662 | 34834 ft | 531 kts | 166° |
| 2026-04-26 07:49 | 70.34019 | 21.64363 | 34834 ft | 531 kts | 167° |
| 2026-04-26 07:49 | 70.26766 | 21.69090 | 34837 ft | 531 kts | 167° |
| 2026-04-26 07:50 | 70.15939 | 21.76084 | 34847 ft | 532 kts | 167° |
| 2026-04-26 07:50 | 70.08781 | 21.80667 | 34844 ft | 524 kts | 167° |
| 2026-04-26 07:51 | 70.03970 | 21.83728 | 34843 ft | 504 kts | 167° |
| 2026-04-26 07:51 | 69.98776 | 21.87015 | 34853 ft | 502 kts | 167° |
| 2026-04-26 07:52 | 69.91850 | 21.91374 | 34841 ft | 503 kts | 167° |
| 2026-04-26 07:52 | 69.86297 | 21.94848 | 34826 ft | 503 kts | 167° |
| 2026-04-26 07:53 | 69.79369 | 21.99157 | 34826 ft | 504 kts | 167° |
| 2026-04-26 07:53 | 69.72544 | 22.03373 | 34816 ft | 504 kts | 167° |
| 2026-04-26 07:54 | 69.65716 | 22.07564 | 34784 ft | 504 kts | 167° |
| 2026-04-26 07:54 | 69.58901 | 22.11720 | 34752 ft | 504 kts | 167° |
| 2026-04-26 07:55 | 69.52092 | 22.15845 | 34726 ft | 504 kts | 167° |
| 2026-04-26 07:55 | 69.45242 | 22.19967 | 34722 ft | 505 kts | 167° |
| 2026-04-26 07:56 | 69.38378 | 22.24072 | 34732 ft | 514 kts | 167° |
| 2026-04-26 07:56 | 69.34827 | 22.26186 | 34736 ft | 525 kts | 168° |
| 2026-04-26 07:56 | 69.31211 | 22.28332 | 34737 ft | 534 kts | 168° |
| 2026-04-26 07:57 | 69.25701 | 22.31586 | 34737 ft | 533 kts | 167° |
| 2026-04-26 07:57 | 69.18446 | 22.35844 | 34752 ft | 534 kts | 167° |
| 2026-04-26 07:58 | 69.11082 | 22.40137 | 34758 ft | 535 kts | 167° |
| 2026-04-26 07:58 | 69.03758 | 22.44376 | 34763 ft | 536 kts | 167° |
| 2026-04-26 07:59 | 68.96471 | 22.48569 | 34756 ft | 535 kts | 167° |
| 2026-04-26 07:59 | 68.89169 | 22.52815 | 34762 ft | 535 kts | 168° |
| 2026-04-26 08:00 | 68.81812 | 22.56956 | 34763 ft | 535 kts | 168° |
| 2026-04-26 08:00 | 68.74519 | 22.61046 | 34765 ft | 535 kts | 168° |
| 2026-04-26 08:01 | 68.67234 | 22.65112 | 34772 ft | 536 kts | 168° |
| 2026-04-26 08:01 | 68.59859 | 22.69206 | 34774 ft | 536 kts | 168° |
| 2026-04-26 08:02 | 68.52588 | 22.73218 | 34783 ft | 536 kts | 168° |
| 2026-04-26 08:02 | 68.45338 | 22.77194 | 34788 ft | 535 kts | 168° |
| 2026-04-26 08:03 | 68.38061 | 22.81160 | 34795 ft | 535 kts | 168° |
| 2026-04-26 08:03 | 68.30801 | 22.85090 | 34800 ft | 535 kts | 168° |
| 2026-04-26 08:04 | 68.23371 | 22.89087 | 34807 ft | 536 kts | 168° |
| 2026-04-26 08:04 | 68.15839 | 22.93112 | 34808 ft | 537 kts | 168° |
| 2026-04-26 08:05 | 68.08397 | 22.97062 | 34811 ft | 536 kts | 168° |
| 2026-04-26 08:05 | 68.00861 | 23.01037 | 34814 ft | 536 kts | 168° |
| 2026-04-26 08:06 | 67.93492 | 23.04897 | 34817 ft | 536 kts | 168° |
| 2026-04-26 08:06 | 67.86181 | 23.08703 | 34815 ft | 536 kts | 168° |
| 2026-04-26 08:07 | 67.78746 | 23.12548 | 34817 ft | 536 kts | 168° |
| 2026-04-26 08:07 | 67.71352 | 23.16348 | 34816 ft | 537 kts | 168° |
| 2026-04-26 08:08 | 67.64116 | 23.20043 | 34813 ft | 536 kts | 168° |
| 2026-04-26 08:08 | 67.56594 | 23.23859 | 34809 ft | 536 kts | 168° |
| 2026-04-26 08:09 | 67.48830 | 23.27772 | 34812 ft | 537 kts | 168° |
| 2026-04-26 08:09 | 67.41047 | 23.31670 | 34816 ft | 536 kts | 168° |
| 2026-04-26 08:10 | 67.33263 | 23.35542 | 34819 ft | 536 kts | 168° |
| 2026-04-26 08:10 | 67.25511 | 23.39372 | 34823 ft | 536 kts | 168° |
| 2026-04-26 08:11 | 67.17863 | 23.43126 | 34823 ft | 536 kts | 168° |
| 2026-04-26 08:11 | 67.10497 | 23.46719 | 34820 ft | 537 kts | 168° |
| 2026-04-26 08:12 | 67.03104 | 23.50302 | 34818 ft | 537 kts | 168° |
| 2026-04-26 08:12 | 66.95667 | 23.53886 | 34819 ft | 537 kts | 168° |
| 2026-04-26 08:13 | 66.88309 | 23.57408 | 34813 ft | 536 kts | 168° |
| 2026-04-26 08:13 | 66.80904 | 23.60932 | 34814 ft | 536 kts | 168° |
| 2026-04-26 08:14 | 66.73176 | 23.64587 | 34810 ft | 536 kts | 168° |
| 2026-04-26 08:14 | 66.65751 | 23.68076 | 34807 ft | 537 kts | 169° |
| 2026-04-26 08:15 | 66.57950 | 23.71719 | 34811 ft | 537 kts | 169° |
| 2026-04-26 08:15 | 66.50191 | 23.75320 | 34811 ft | 536 kts | 169° |
| 2026-04-26 08:16 | 66.42330 | 23.78944 | 34807 ft | 537 kts | 169° |
| 2026-04-26 08:16 | 66.34752 | 23.82417 | 34806 ft | 536 kts | 169° |
| 2026-04-26 08:17 | 66.27267 | 23.85825 | 34801 ft | 536 kts | 169° |
| 2026-04-26 08:17 | 66.19647 | 23.89274 | 34806 ft | 537 kts | 169° |
| 2026-04-26 08:18 | 66.12292 | 23.92583 | 34808 ft | 537 kts | 169° |
| 2026-04-26 08:18 | 66.04983 | 23.95853 | 34810 ft | 536 kts | 169° |
| 2026-04-26 08:19 | 65.97694 | 23.99094 | 34807 ft | 537 kts | 169° |
| 2026-04-26 08:19 | 65.90380 | 24.02328 | 34816 ft | 536 kts | 169° |
| 2026-04-26 08:20 | 65.82920 | 24.05607 | 34815 ft | 536 kts | 169° |
| 2026-04-26 08:20 | 65.75530 | 24.08836 | 34817 ft | 536 kts | 169° |
| 2026-04-26 08:21 | 65.68160 | 24.12037 | 34819 ft | 537 kts | 169° |
| 2026-04-26 08:21 | 65.60832 | 24.15202 | 34814 ft | 536 kts | 169° |
| 2026-04-26 08:22 | 65.53498 | 24.18352 | 34804 ft | 536 kts | 169° |
| 2026-04-26 08:22 | 65.46191 | 24.21472 | 34802 ft | 536 kts | 169° |
| 2026-04-26 08:23 | 65.38876 | 24.24578 | 34801 ft | 536 kts | 169° |
| 2026-04-26 08:23 | 65.31551 | 24.27670 | 34800 ft | 536 kts | 169° |
| 2026-04-26 08:24 | 65.24218 | 24.30749 | 34803 ft | 536 kts | 169° |
| 2026-04-26 08:24 | 65.16868 | 24.33818 | 34803 ft | 537 kts | 169° |
| 2026-04-26 08:25 | 65.09546 | 24.36857 | 34802 ft | 536 kts | 169° |
| 2026-04-26 08:25 | 65.02212 | 24.39885 | 34801 ft | 536 kts | 169° |
| 2026-04-26 08:26 | 64.94908 | 24.42883 | 34801 ft | 535 kts | 169° |
| 2026-04-26 08:26 | 64.87547 | 24.45888 | 34795 ft | 535 kts | 169° |
| 2026-04-26 08:27 | 64.79998 | 24.48953 | 34788 ft | 535 kts | 169° |
| 2026-04-26 08:27 | 64.72308 | 24.52056 | 34782 ft | 535 kts | 169° |
| 2026-04-26 08:28 | 64.64580 | 24.55157 | 34781 ft | 536 kts | 169° |
| 2026-04-26 08:28 | 64.56870 | 24.58233 | 34775 ft | 535 kts | 169° |
| 2026-04-26 08:29 | 64.49164 | 24.61290 | 34763 ft | 535 kts | 169° |
| 2026-04-26 08:29 | 64.41471 | 24.64324 | 34765 ft | 536 kts | 169° |
| 2026-04-26 08:30 | 64.33897 | 24.67296 | 34759 ft | 536 kts | 171° |
| 2026-04-26 08:30 | 64.26170 | 24.70309 | 34757 ft | 535 kts | 171° |
| 2026-04-26 08:31 | 64.18465 | 24.73298 | 34751 ft | 535 kts | 171° |
| 2026-04-26 08:31 | 64.10940 | 24.76200 | 34752 ft | 535 kts | 171° |
| 2026-04-26 08:32 | 64.03340 | 24.79114 | 34750 ft | 535 kts | 171° |
| 2026-04-26 08:32 | 63.95639 | 24.82052 | 34747 ft | 535 kts | 170° |
| 2026-04-26 08:33 | 63.88161 | 24.84888 | 34740 ft | 535 kts | 171° |
| 2026-04-26 08:33 | 63.80790 | 24.87669 | 34727 ft | 535 kts | 171° |
| 2026-04-26 08:34 | 63.73349 | 24.90461 | 34727 ft | 535 kts | 171° |
| 2026-04-26 08:34 | 63.65963 | 24.93218 | 34728 ft | 534 kts | 171° |
| 2026-04-26 08:35 | 63.58362 | 24.96041 | 34721 ft | 535 kts | 171° |
| 2026-04-26 08:35 | 63.51019 | 24.98753 | 34712 ft | 534 kts | 171° |
| 2026-04-26 08:36 | 63.43612 | 25.01474 | 34714 ft | 535 kts | 171° |
| 2026-04-26 08:36 | 63.36101 | 25.04219 | 34710 ft | 534 kts | 171° |
| 2026-04-26 08:37 | 63.28699 | 25.06910 | 34705 ft | 534 kts | 171° |
| 2026-04-26 08:37 | 63.21363 | 25.09563 | 34706 ft | 534 kts | 171° |
| 2026-04-26 08:38 | 63.13987 | 25.12217 | 34700 ft | 534 kts | 171° |
| 2026-04-26 08:38 | 63.06680 | 25.14833 | 34696 ft | 534 kts | 171° |
| 2026-04-26 08:39 | 62.99363 | 25.17439 | 34696 ft | 533 kts | 171° |
| 2026-04-26 08:39 | 62.91986 | 25.20053 | 34689 ft | 533 kts | 171° |
| 2026-04-26 08:40 | 62.84711 | 25.22618 | 34683 ft | 534 kts | 171° |
| 2026-04-26 08:40 | 62.77261 | 25.25231 | 34679 ft | 534 kts | 171° |
| 2026-04-26 08:41 | 62.69940 | 25.27786 | 34669 ft | 534 kts | 171° |
| 2026-04-26 08:41 | 62.62552 | 25.30351 | 34669 ft | 534 kts | 171° |
| 2026-04-26 08:42 | 62.55201 | 25.32874 | 34661 ft | 534 kts | 172° |
| 2026-04-26 08:42 | 62.47762 | 25.33387 | 34661 ft | 533 kts | 181° |
| 2026-04-26 08:43 | 62.40329 | 25.33131 | 34660 ft | 533 kts | 181° |
| 2026-04-26 08:43 | 62.32921 | 25.32828 | 34667 ft | 534 kts | 181° |
| 2026-04-26 08:44 | 62.25523 | 25.32505 | 34669 ft | 534 kts | 181° |
| 2026-04-26 08:44 | 62.18028 | 25.32166 | 34672 ft | 533 kts | 181° |
| 2026-04-26 08:45 | 62.10595 | 25.31825 | 34666 ft | 534 kts | 181° |
| 2026-04-26 08:45 | 62.03176 | 25.31477 | 34648 ft | 533 kts | 181° |
| 2026-04-26 08:46 | 61.95795 | 25.31126 | 34464 ft | 525 kts | 181° |
| 2026-04-26 08:46 | 61.92161 | 25.30957 | 33762 ft | 527 kts | 181° |
| 2026-04-26 08:46 | 61.88507 | 25.30788 | 32661 ft | 532 kts | 181° |
| 2026-04-26 08:47 | 61.86071 | 25.30674 | 32064 ft | 529 kts | 181° |
| 2026-04-26 08:47 | 61.82378 | 25.30503 | 31123 ft | 524 kts | 181° |
| 2026-04-26 08:47 | 61.78737 | 25.30334 | 30315 ft | 515 kts | 181° |
| 2026-04-26 08:47 | 61.75231 | 25.30172 | 29752 ft | 501 kts | 181° |
| 2026-04-26 08:48 | 61.71803 | 25.30013 | 29184 ft | 488 kts | 181° |
| 2026-04-26 08:48 | 61.68464 | 25.29858 | 28612 ft | 475 kts | 181° |
| 2026-04-26 08:48 | 61.65207 | 25.29707 | 28042 ft | 463 kts | 180° |
| 2026-04-26 08:48 | 61.62048 | 25.29560 | 27484 ft | 450 kts | 180° |
| 2026-04-26 08:49 | 61.58928 | 25.29413 | 27046 ft | 434 kts | 180° |
| 2026-04-26 08:49 | 61.55911 | 25.29269 | 26667 ft | 434 kts | 180° |
| 2026-04-26 08:49 | 61.52850 | 25.29126 | 26188 ft | 441 kts | 180° |
| 2026-04-26 08:49 | 61.49831 | 25.28984 | 25636 ft | 431 kts | 180° |
| 2026-04-26 08:50 | 61.46837 | 25.28843 | 25075 ft | 422 kts | 180° |
| 2026-04-26 08:50 | 61.44156 | 25.28718 | 24508 ft | 417 kts | 180° |
| 2026-04-26 08:50 | 61.41241 | 25.28582 | 23895 ft | 414 kts | 180° |
| 2026-04-26 08:50 | 61.38390 | 25.28449 | 23351 ft | 412 kts | 180° |
| 2026-04-26 08:51 | 61.32733 | 25.28187 | 22288 ft | 406 kts | 180° |
| 2026-04-26 08:51 | 61.29932 | 25.28058 | 21753 ft | 403 kts | 179° |
| 2026-04-26 08:51 | 61.27142 | 25.27930 | 21224 ft | 400 kts | 179° |
| 2026-04-26 08:52 | 61.24388 | 25.27805 | 20686 ft | 396 kts | 180° |
| 2026-04-26 08:52 | 61.21645 | 25.27681 | 20151 ft | 393 kts | 179° |
| 2026-04-26 08:52 | 61.18944 | 25.27558 | 19623 ft | 391 kts | 179° |
| 2026-04-26 08:52 | 61.16248 | 25.27437 | 19091 ft | 388 kts | 179° |
| 2026-04-26 08:53 | 61.13475 | 25.27312 | 18547 ft | 387 kts | 179° |
| 2026-04-26 08:53 | 61.10794 | 25.27192 | 18020 ft | 386 kts | 179° |
| 2026-04-26 08:53 | 61.08078 | 25.27071 | 17471 ft | 386 kts | 179° |
| 2026-04-26 08:53 | 61.05403 | 25.26951 | 16928 ft | 385 kts | 180° |
| 2026-04-26 08:54 | 61.02672 | 25.26829 | 16390 ft | 384 kts | 180° |
| 2026-04-26 08:54 | 60.99978 | 25.26709 | 15841 ft | 384 kts | 180° |
| 2026-04-26 08:54 | 60.97244 | 25.26587 | 15285 ft | 384 kts | 180° |
| 2026-04-26 08:54 | 60.94552 | 25.26471 | 14747 ft | 384 kts | 179° |
| 2026-04-26 08:55 | 60.91903 | 25.26598 | 14196 ft | 382 kts | 176° |
| 2026-04-26 08:55 | 60.89200 | 25.26807 | 13635 ft | 383 kts | 176° |
| 2026-04-26 08:55 | 60.86490 | 25.27008 | 13050 ft | 381 kts | 176° |
| 2026-04-26 08:55 | 60.83810 | 25.27197 | 12483 ft | 379 kts | 178° |
| 2026-04-26 08:56 | 60.81171 | 25.26880 | 11923 ft | 370 kts | 186° |
| 2026-04-26 08:56 | 60.79496 | 25.26478 | 11620 ft | 359 kts | 186° |
| 2026-04-26 08:56 | 60.76298 | 25.25685 | 11158 ft | 337 kts | 186° |
| 2026-04-26 08:56 | 60.74027 | 25.25120 | 10914 ft | 320 kts | 186° |
| 2026-04-26 08:57 | 60.71828 | 25.24576 | 10373 ft | 316 kts | 186° |
| 2026-04-26 08:57 | 60.69633 | 25.24035 | 9687 ft | 317 kts | 186° |
| 2026-04-26 08:57 | 60.67409 | 25.23487 | 9082 ft | 315 kts | 186° |
| 2026-04-26 08:57 | 60.65242 | 25.22955 | 8478 ft | 314 kts | 187° |
| 2026-04-26 08:58 | 60.63081 | 25.22425 | 7880 ft | 313 kts | 187° |
| 2026-04-26 08:58 | 60.60898 | 25.21890 | 7608 ft | 314 kts | 187° |
| 2026-04-26 08:58 | 60.58709 | 25.21355 | 7341 ft | 314 kts | 187° |
| 2026-04-26 08:58 | 60.56535 | 25.20823 | 7077 ft | 314 kts | 187° |
| 2026-04-26 08:59 | 60.54370 | 25.20295 | 6817 ft | 313 kts | 187° |
| 2026-04-26 08:59 | 60.52236 | 25.19776 | 6560 ft | 313 kts | 187° |
| 2026-04-26 08:59 | 60.50065 | 25.19248 | 6286 ft | 311 kts | 187° |
| 2026-04-26 08:59 | 60.47889 | 25.18718 | 6023 ft | 310 kts | 188° |
| 2026-04-26 09:00 | 60.45725 | 25.18193 | 5751 ft | 308 kts | 188° |
| 2026-04-26 09:00 | 60.43582 | 25.17674 | 5480 ft | 308 kts | 188° |
| 2026-04-26 09:00 | 60.41484 | 25.17166 | 5229 ft | 306 kts | 188° |
| 2026-04-26 09:00 | 60.39357 | 25.16653 | 4968 ft | 302 kts | 188° |
| 2026-04-26 09:01 | 60.37272 | 25.16149 | 4712 ft | 299 kts | 188° |
| 2026-04-26 09:01 | 60.35239 | 25.15660 | 4429 ft | 295 kts | 188° |
| 2026-04-26 09:01 | 60.33223 | 25.15728 | 4136 ft | 285 kts | 164° |
| 2026-04-26 09:01 | 60.31379 | 25.17055 | 3895 ft | 280 kts | 152° |
| 2026-04-26 09:02 | 60.29635 | 25.18716 | 3652 ft | 272 kts | 150° |
| 2026-04-26 09:02 | 60.27969 | 25.20396 | 3406 ft | 267 kts | 149° |
| 2026-04-26 09:02 | 60.26332 | 25.22057 | 3150 ft | 260 kts | 150° |
| 2026-04-26 09:02 | 60.24754 | 25.23655 | 2990 ft | 244 kts | 149° |
| 2026-04-26 09:03 | 60.23306 | 25.25118 | 2971 ft | 225 kts | 149° |
| 2026-04-26 09:03 | 60.21883 | 25.26459 | 2963 ft | 225 kts | 163° |
| 2026-04-26 09:03 | 60.20359 | 25.26576 | 2958 ft | 220 kts | 199° |
| 2026-04-26 09:03 | 60.19058 | 25.25215 | 2950 ft | 205 kts | 233° |
| 2026-04-26 09:04 | 60.18242 | 25.23030 | 2962 ft | 190 kts | 250° |
| 2026-04-26 09:04 | 60.17588 | 25.20702 | 2976 ft | 190 kts | 253° |
| 2026-04-26 09:04 | 60.17001 | 25.18397 | 2965 ft | 179 kts | 260° |
| 2026-04-26 09:04 | 60.16781 | 25.16128 | 2965 ft | 159 kts | 284° |
| 2026-04-26 09:05 | 60.17029 | 25.14011 | 2958 ft | 159 kts | 304° |
| 2026-04-26 09:05 | 60.17665 | 25.12270 | 2782 ft | 146 kts | 324° |
| 2026-04-26 09:05 | 60.18541 | 25.11211 | 3026 ft | 148 kts | 335° |
| 2026-04-26 09:05 | 60.19444 | 25.10308 | 2781 ft | 146 kts | 335° |
| 2026-04-26 09:06 | 60.20340 | 25.09402 | 2578 ft | 145 kts | 335° |
| 2026-04-26 09:06 | 60.21266 | 25.08460 | 2369 ft | 148 kts | 335° |
| 2026-04-26 09:06 | 60.22174 | 25.07536 | 2151 ft | 143 kts | 334° |
| 2026-04-26 09:06 | 60.23047 | 25.06645 | 1951 ft | 144 kts | 335° |
| 2026-04-26 09:07 | 60.23908 | 25.05768 | 1745 ft | 132 kts | 335° |
| 2026-04-26 09:07 | 60.24699 | 25.04964 | 1543 ft | 122 kts | 334° |
| 2026-04-26 09:07 | 60.25411 | 25.04238 | 1328 ft | 109 kts | 334° |
| 2026-04-26 09:07 | 60.26066 | 25.03571 | 1129 ft | 105 kts | 334° |
| 2026-04-26 09:08 | 60.26712 | 25.02912 | 930 ft | 105 kts | 333° |
| 2026-04-26 09:08 | 60.27354 | 25.02228 | 760 ft | 104 kts | 332° |
| 2026-04-26 09:08 | 60.28009 | 25.01516 | 710 ft | 107 kts | 335° |
| 2026-04-26 09:08 | 60.28688 | 25.00877 | 613 ft | 104 kts | 335° |
| 2026-04-26 09:09 | 60.29346 | 25.00207 | 551 ft | 107 kts | 332° |
| 2026-04-26 09:09 | 60.29990 | 24.99540 | 411 ft | 103 kts | 335° |
| 2026-04-26 09:09 | 60.30638 | 24.98894 | 230 ft | 107 kts | 333° |
| 2026-04-26 09:09 | 60.31267 | 24.98259 | 197 ft | 82 kts | 333° |
| 2026-04-26 09:10 | 60.31615 | 24.97900 | 197 ft | 31 kts | 333° |
| 2026-04-26 09:10 | 60.31684 | 24.97828 | 197 ft | 0 kts | 321° |
| 2026-04-26 09:10 | 60.31686 | 24.97823 | 197 ft | 1 kts | 309° |